<?xml version="1.0" encoding="UTF-8" standalone="no" ?>
<gpx xmlns="http://www.topografix.com/GPX/1/1" xmlns:xsi="http://www.w3.org/2001/XMLSchema-instance" xsi:schemaLocation="http://www.topografix.com/GPX/1/1 http://www.topografix.com/GPX/1/1/gpx.xsd" version="1.1" creator="VisuGPX - https://www.visugpx.com">
  <metadata>
    <name>2020-09-06  Randonnée le Rudlin</name>
    <desc><![CDATA[Parking du Rudlin-le Reichberg-Gazon du Faing-cascade du Rudlin.]]></desc>
  </metadata>
  <trk>
    <name><![CDATA[2020-09-06 18:35:15]]></name>
    <trkseg>
      <trkpt lat="48.11893" lon="7.0424">
        <ele>672.35</ele>
        <time>2020-09-06T07:51:05Z</time>
      </trkpt>
      <trkpt lat="48.11897" lon="7.04243">
        <ele>673.91</ele>
        <time>2020-09-06T07:54:54Z</time>
      </trkpt>
      <trkpt lat="48.11891" lon="7.04244">
        <ele>675.04</ele>
        <time>2020-09-06T07:56:50Z</time>
      </trkpt>
      <trkpt lat="48.11909" lon="7.0425">
        <ele>675.92</ele>
        <time>2020-09-06T07:57:38Z</time>
      </trkpt>
      <trkpt lat="48.11928" lon="7.04261">
        <ele>677.69</ele>
        <time>2020-09-06T07:58:03Z</time>
      </trkpt>
      <trkpt lat="48.11946" lon="7.04274">
        <ele>678.72</ele>
        <time>2020-09-06T07:58:24Z</time>
      </trkpt>
      <trkpt lat="48.11963" lon="7.04292">
        <ele>679.77</ele>
        <time>2020-09-06T07:58:59Z</time>
      </trkpt>
      <trkpt lat="48.11978" lon="7.04313">
        <ele>681.13</ele>
        <time>2020-09-06T07:59:22Z</time>
      </trkpt>
      <trkpt lat="48.1199" lon="7.04335">
        <ele>682.93</ele>
        <time>2020-09-06T07:59:40Z</time>
      </trkpt>
      <trkpt lat="48.12" lon="7.04364">
        <ele>683.72</ele>
        <time>2020-09-06T08:00:03Z</time>
      </trkpt>
      <trkpt lat="48.12009" lon="7.04392">
        <ele>684.83</ele>
        <time>2020-09-06T08:00:22Z</time>
      </trkpt>
      <trkpt lat="48.1202" lon="7.0442">
        <ele>684.67</ele>
        <time>2020-09-06T08:00:43Z</time>
      </trkpt>
      <trkpt lat="48.12035" lon="7.0444">
        <ele>685.74</ele>
        <time>2020-09-06T08:01:04Z</time>
      </trkpt>
      <trkpt lat="48.1205" lon="7.0446">
        <ele>687.52</ele>
        <time>2020-09-06T08:01:24Z</time>
      </trkpt>
      <trkpt lat="48.12066" lon="7.04491">
        <ele>691.17</ele>
        <time>2020-09-06T08:01:47Z</time>
      </trkpt>
      <trkpt lat="48.12084" lon="7.04514">
        <ele>693.4</ele>
        <time>2020-09-06T08:02:09Z</time>
      </trkpt>
      <trkpt lat="48.12103" lon="7.04527">
        <ele>696.88</ele>
        <time>2020-09-06T08:02:35Z</time>
      </trkpt>
      <trkpt lat="48.12121" lon="7.04552">
        <ele>699.96</ele>
        <time>2020-09-06T08:03:00Z</time>
      </trkpt>
      <trkpt lat="48.12132" lon="7.04575">
        <ele>701.6</ele>
        <time>2020-09-06T08:03:34Z</time>
      </trkpt>
      <trkpt lat="48.12141" lon="7.04607">
        <ele>702.85</ele>
        <time>2020-09-06T08:03:58Z</time>
      </trkpt>
      <trkpt lat="48.12151" lon="7.04632">
        <ele>704.1</ele>
        <time>2020-09-06T08:04:16Z</time>
      </trkpt>
      <trkpt lat="48.12163" lon="7.04654">
        <ele>706.17</ele>
        <time>2020-09-06T08:04:34Z</time>
      </trkpt>
      <trkpt lat="48.12176" lon="7.04675">
        <ele>707.78</ele>
        <time>2020-09-06T08:04:52Z</time>
      </trkpt>
      <trkpt lat="48.12191" lon="7.04694">
        <ele>710.16</ele>
        <time>2020-09-06T08:05:10Z</time>
      </trkpt>
      <trkpt lat="48.12206" lon="7.04712">
        <ele>711.89</ele>
        <time>2020-09-06T08:05:30Z</time>
      </trkpt>
      <trkpt lat="48.12222" lon="7.04732">
        <ele>714.09</ele>
        <time>2020-09-06T08:05:50Z</time>
      </trkpt>
      <trkpt lat="48.12238" lon="7.04754">
        <ele>716.02</ele>
        <time>2020-09-06T08:06:11Z</time>
      </trkpt>
      <trkpt lat="48.12253" lon="7.04773">
        <ele>718.15</ele>
        <time>2020-09-06T08:06:30Z</time>
      </trkpt>
      <trkpt lat="48.12266" lon="7.04797">
        <ele>718.68</ele>
        <time>2020-09-06T08:06:51Z</time>
      </trkpt>
      <trkpt lat="48.12266" lon="7.04797">
        <ele>719.84</ele>
        <time>2020-09-06T08:07:59Z</time>
      </trkpt>
      <trkpt lat="48.12267" lon="7.04812">
        <ele>722.46</ele>
        <time>2020-09-06T08:10:50Z</time>
      </trkpt>
      <trkpt lat="48.12257" lon="7.04834">
        <ele>723.3</ele>
        <time>2020-09-06T08:11:19Z</time>
      </trkpt>
      <trkpt lat="48.12244" lon="7.04848">
        <ele>724.77</ele>
        <time>2020-09-06T08:12:15Z</time>
      </trkpt>
      <trkpt lat="48.12247" lon="7.04844">
        <ele>725.27</ele>
        <time>2020-09-06T08:13:02Z</time>
      </trkpt>
      <trkpt lat="48.1225" lon="7.04845">
        <ele>725.16</ele>
        <time>2020-09-06T08:14:43Z</time>
      </trkpt>
      <trkpt lat="48.12255" lon="7.04873">
        <ele>729.49</ele>
        <time>2020-09-06T08:15:18Z</time>
      </trkpt>
      <trkpt lat="48.12267" lon="7.04898">
        <ele>736.45</ele>
        <time>2020-09-06T08:15:57Z</time>
      </trkpt>
      <trkpt lat="48.12285" lon="7.04916">
        <ele>741.28</ele>
        <time>2020-09-06T08:16:31Z</time>
      </trkpt>
      <trkpt lat="48.12298" lon="7.04948">
        <ele>744.35</ele>
        <time>2020-09-06T08:17:06Z</time>
      </trkpt>
      <trkpt lat="48.12315" lon="7.04979">
        <ele>748.23</ele>
        <time>2020-09-06T08:17:38Z</time>
      </trkpt>
      <trkpt lat="48.12321" lon="7.0501">
        <ele>753.57</ele>
        <time>2020-09-06T08:18:12Z</time>
      </trkpt>
      <trkpt lat="48.12323" lon="7.05043">
        <ele>757.68</ele>
        <time>2020-09-06T08:18:43Z</time>
      </trkpt>
      <trkpt lat="48.12322" lon="7.05076">
        <ele>760.3</ele>
        <time>2020-09-06T08:19:14Z</time>
      </trkpt>
      <trkpt lat="48.12327" lon="7.05111">
        <ele>764.11</ele>
        <time>2020-09-06T08:19:45Z</time>
      </trkpt>
      <trkpt lat="48.1235" lon="7.05134">
        <ele>767.03</ele>
        <time>2020-09-06T08:20:16Z</time>
      </trkpt>
      <trkpt lat="48.12374" lon="7.05135">
        <ele>772.05</ele>
        <time>2020-09-06T08:20:55Z</time>
      </trkpt>
      <trkpt lat="48.12394" lon="7.05134">
        <ele>776.3</ele>
        <time>2020-09-06T08:21:32Z</time>
      </trkpt>
      <trkpt lat="48.12414" lon="7.0515">
        <ele>782.83</ele>
        <time>2020-09-06T08:22:11Z</time>
      </trkpt>
      <trkpt lat="48.12436" lon="7.0516">
        <ele>787.05</ele>
        <time>2020-09-06T08:22:47Z</time>
      </trkpt>
      <trkpt lat="48.12462" lon="7.05169">
        <ele>791.93</ele>
        <time>2020-09-06T08:23:28Z</time>
      </trkpt>
      <trkpt lat="48.12487" lon="7.05186">
        <ele>797.12</ele>
        <time>2020-09-06T08:24:12Z</time>
      </trkpt>
      <trkpt lat="48.12514" lon="7.05198">
        <ele>802.98</ele>
        <time>2020-09-06T08:24:49Z</time>
      </trkpt>
      <trkpt lat="48.12523" lon="7.05206">
        <ele>804.33</ele>
        <time>2020-09-06T08:25:47Z</time>
      </trkpt>
      <trkpt lat="48.12529" lon="7.05221">
        <ele>807.14</ele>
        <time>2020-09-06T08:27:00Z</time>
      </trkpt>
      <trkpt lat="48.12546" lon="7.05231">
        <ele>809.51</ele>
        <time>2020-09-06T08:27:38Z</time>
      </trkpt>
      <trkpt lat="48.12558" lon="7.05227">
        <ele>810.04</ele>
        <time>2020-09-06T08:28:27Z</time>
      </trkpt>
      <trkpt lat="48.12554" lon="7.05236">
        <ele>811.22</ele>
        <time>2020-09-06T08:30:10Z</time>
      </trkpt>
      <trkpt lat="48.12567" lon="7.05249">
        <ele>815.05</ele>
        <time>2020-09-06T08:30:59Z</time>
      </trkpt>
      <trkpt lat="48.12589" lon="7.05286">
        <ele>818.7</ele>
        <time>2020-09-06T08:31:37Z</time>
      </trkpt>
      <trkpt lat="48.12603" lon="7.05306">
        <ele>822.94</ele>
        <time>2020-09-06T08:32:11Z</time>
      </trkpt>
      <trkpt lat="48.12623" lon="7.05319">
        <ele>826.76</ele>
        <time>2020-09-06T08:32:50Z</time>
      </trkpt>
      <trkpt lat="48.12643" lon="7.05339">
        <ele>830.84</ele>
        <time>2020-09-06T08:33:24Z</time>
      </trkpt>
      <trkpt lat="48.12659" lon="7.05362">
        <ele>834.93</ele>
        <time>2020-09-06T08:33:55Z</time>
      </trkpt>
      <trkpt lat="48.12677" lon="7.05391">
        <ele>837.59</ele>
        <time>2020-09-06T08:34:33Z</time>
      </trkpt>
      <trkpt lat="48.12694" lon="7.05419">
        <ele>842.42</ele>
        <time>2020-09-06T08:35:11Z</time>
      </trkpt>
      <trkpt lat="48.12701" lon="7.0545">
        <ele>845.35</ele>
        <time>2020-09-06T08:35:49Z</time>
      </trkpt>
      <trkpt lat="48.12709" lon="7.0548">
        <ele>848.75</ele>
        <time>2020-09-06T08:36:21Z</time>
      </trkpt>
      <trkpt lat="48.12724" lon="7.05492">
        <ele>847.04</ele>
        <time>2020-09-06T08:36:53Z</time>
      </trkpt>
      <trkpt lat="48.12729" lon="7.05501">
        <ele>846.67</ele>
        <time>2020-09-06T08:37:45Z</time>
      </trkpt>
      <trkpt lat="48.12724" lon="7.05497">
        <ele>847.16</ele>
        <time>2020-09-06T08:39:09Z</time>
      </trkpt>
      <trkpt lat="48.12732" lon="7.05495">
        <ele>848.37</ele>
        <time>2020-09-06T08:40:33Z</time>
      </trkpt>
      <trkpt lat="48.12732" lon="7.05524">
        <ele>853.56</ele>
        <time>2020-09-06T08:41:33Z</time>
      </trkpt>
      <trkpt lat="48.12727" lon="7.05555">
        <ele>859.32</ele>
        <time>2020-09-06T08:42:13Z</time>
      </trkpt>
      <trkpt lat="48.12717" lon="7.05596">
        <ele>863.45</ele>
        <time>2020-09-06T08:42:50Z</time>
      </trkpt>
      <trkpt lat="48.12709" lon="7.0563">
        <ele>866.38</ele>
        <time>2020-09-06T08:43:24Z</time>
      </trkpt>
      <trkpt lat="48.12702" lon="7.05666">
        <ele>871.57</ele>
        <time>2020-09-06T08:44:04Z</time>
      </trkpt>
      <trkpt lat="48.12699" lon="7.05699">
        <ele>875.37</ele>
        <time>2020-09-06T08:44:41Z</time>
      </trkpt>
      <trkpt lat="48.12693" lon="7.05733">
        <ele>878.68</ele>
        <time>2020-09-06T08:45:18Z</time>
      </trkpt>
      <trkpt lat="48.12681" lon="7.05765">
        <ele>882.83</ele>
        <time>2020-09-06T08:45:55Z</time>
      </trkpt>
      <trkpt lat="48.12675" lon="7.05793">
        <ele>886</ele>
        <time>2020-09-06T08:46:33Z</time>
      </trkpt>
      <trkpt lat="48.12657" lon="7.05818">
        <ele>889.8</ele>
        <time>2020-09-06T08:47:02Z</time>
      </trkpt>
      <trkpt lat="48.12641" lon="7.05837">
        <ele>894.49</ele>
        <time>2020-09-06T08:47:37Z</time>
      </trkpt>
      <trkpt lat="48.12646" lon="7.05869">
        <ele>895.69</ele>
        <time>2020-09-06T08:48:12Z</time>
      </trkpt>
      <trkpt lat="48.12642" lon="7.05907">
        <ele>900.66</ele>
        <time>2020-09-06T08:48:52Z</time>
      </trkpt>
      <trkpt lat="48.12633" lon="7.0594">
        <ele>903.68</ele>
        <time>2020-09-06T08:49:29Z</time>
      </trkpt>
      <trkpt lat="48.12637" lon="7.05972">
        <ele>908.01</ele>
        <time>2020-09-06T08:50:07Z</time>
      </trkpt>
      <trkpt lat="48.12636" lon="7.06022">
        <ele>911.56</ele>
        <time>2020-09-06T08:50:44Z</time>
      </trkpt>
      <trkpt lat="48.12642" lon="7.06057">
        <ele>914.26</ele>
        <time>2020-09-06T08:51:18Z</time>
      </trkpt>
      <trkpt lat="48.12669" lon="7.06075">
        <ele>914.89</ele>
        <time>2020-09-06T08:51:44Z</time>
      </trkpt>
      <trkpt lat="48.12675" lon="7.06081">
        <ele>916.58</ele>
        <time>2020-09-06T08:52:27Z</time>
      </trkpt>
      <trkpt lat="48.12672" lon="7.06087">
        <ele>915.65</ele>
        <time>2020-09-06T08:53:14Z</time>
      </trkpt>
      <trkpt lat="48.12665" lon="7.06086">
        <ele>916.06</ele>
        <time>2020-09-06T08:54:11Z</time>
      </trkpt>
      <trkpt lat="48.12662" lon="7.06074">
        <ele>916.26</ele>
        <time>2020-09-06T08:54:56Z</time>
      </trkpt>
      <trkpt lat="48.12662" lon="7.06083">
        <ele>917.36</ele>
        <time>2020-09-06T08:55:38Z</time>
      </trkpt>
      <trkpt lat="48.12666" lon="7.06093">
        <ele>916.92</ele>
        <time>2020-09-06T08:56:09Z</time>
      </trkpt>
      <trkpt lat="48.12666" lon="7.06087">
        <ele>917.25</ele>
        <time>2020-09-06T08:56:52Z</time>
      </trkpt>
      <trkpt lat="48.12665" lon="7.06086">
        <ele>918.73</ele>
        <time>2020-09-06T08:57:53Z</time>
      </trkpt>
      <trkpt lat="48.12674" lon="7.06089">
        <ele>923.94</ele>
        <time>2020-09-06T08:58:44Z</time>
      </trkpt>
      <trkpt lat="48.12669" lon="7.06115">
        <ele>928.69</ele>
        <time>2020-09-06T08:59:20Z</time>
      </trkpt>
      <trkpt lat="48.12665" lon="7.06136">
        <ele>932.5</ele>
        <time>2020-09-06T08:59:49Z</time>
      </trkpt>
      <trkpt lat="48.12662" lon="7.0616">
        <ele>936.52</ele>
        <time>2020-09-06T09:00:20Z</time>
      </trkpt>
      <trkpt lat="48.12667" lon="7.06175">
        <ele>941.61</ele>
        <time>2020-09-06T09:00:57Z</time>
      </trkpt>
      <trkpt lat="48.12685" lon="7.06163">
        <ele>944.63</ele>
        <time>2020-09-06T09:01:30Z</time>
      </trkpt>
      <trkpt lat="48.12706" lon="7.0615">
        <ele>948.1</ele>
        <time>2020-09-06T09:02:05Z</time>
      </trkpt>
      <trkpt lat="48.12732" lon="7.06138">
        <ele>952.92</ele>
        <time>2020-09-06T09:02:46Z</time>
      </trkpt>
      <trkpt lat="48.12758" lon="7.06124">
        <ele>956.09</ele>
        <time>2020-09-06T09:03:26Z</time>
      </trkpt>
      <trkpt lat="48.12781" lon="7.06122">
        <ele>960.81</ele>
        <time>2020-09-06T09:04:04Z</time>
      </trkpt>
      <trkpt lat="48.12805" lon="7.06124">
        <ele>965.34</ele>
        <time>2020-09-06T09:04:49Z</time>
      </trkpt>
      <trkpt lat="48.12832" lon="7.06134">
        <ele>969.74</ele>
        <time>2020-09-06T09:05:22Z</time>
      </trkpt>
      <trkpt lat="48.12834" lon="7.06163">
        <ele>976.85</ele>
        <time>2020-09-06T09:06:01Z</time>
      </trkpt>
      <trkpt lat="48.12831" lon="7.06182">
        <ele>978.28</ele>
        <time>2020-09-06T09:06:51Z</time>
      </trkpt>
      <trkpt lat="48.12831" lon="7.06191">
        <ele>978.18</ele>
        <time>2020-09-06T09:07:21Z</time>
      </trkpt>
      <trkpt lat="48.12828" lon="7.06177">
        <ele>978.46</ele>
        <time>2020-09-06T09:08:15Z</time>
      </trkpt>
      <trkpt lat="48.12824" lon="7.0618">
        <ele>978.88</ele>
        <time>2020-09-06T09:09:37Z</time>
      </trkpt>
      <trkpt lat="48.12826" lon="7.06178">
        <ele>980.42</ele>
        <time>2020-09-06T09:11:12Z</time>
      </trkpt>
      <trkpt lat="48.12824" lon="7.06182">
        <ele>981.57</ele>
        <time>2020-09-06T09:13:12Z</time>
      </trkpt>
      <trkpt lat="48.1283" lon="7.06188">
        <ele>986.6</ele>
        <time>2020-09-06T09:14:19Z</time>
      </trkpt>
      <trkpt lat="48.12855" lon="7.06187">
        <ele>991.47</ele>
        <time>2020-09-06T09:14:56Z</time>
      </trkpt>
      <trkpt lat="48.12878" lon="7.06186">
        <ele>995.57</ele>
        <time>2020-09-06T09:15:34Z</time>
      </trkpt>
      <trkpt lat="48.12905" lon="7.06183">
        <ele>998.24</ele>
        <time>2020-09-06T09:16:13Z</time>
      </trkpt>
      <trkpt lat="48.12925" lon="7.0618">
        <ele>1003.68</ele>
        <time>2020-09-06T09:16:54Z</time>
      </trkpt>
      <trkpt lat="48.12933" lon="7.06198">
        <ele>1007.55</ele>
        <time>2020-09-06T09:17:33Z</time>
      </trkpt>
      <trkpt lat="48.12938" lon="7.06223">
        <ele>1014.52</ele>
        <time>2020-09-06T09:18:17Z</time>
      </trkpt>
      <trkpt lat="48.12947" lon="7.06243">
        <ele>1018.92</ele>
        <time>2020-09-06T09:18:52Z</time>
      </trkpt>
      <trkpt lat="48.12963" lon="7.06255">
        <ele>1024.06</ele>
        <time>2020-09-06T09:19:35Z</time>
      </trkpt>
      <trkpt lat="48.12979" lon="7.06238">
        <ele>1021.38</ele>
        <time>2020-09-06T09:20:05Z</time>
      </trkpt>
      <trkpt lat="48.12971" lon="7.06256">
        <ele>1023.2</ele>
        <time>2020-09-06T09:20:59Z</time>
      </trkpt>
      <trkpt lat="48.12982" lon="7.06245">
        <ele>1023.29</ele>
        <time>2020-09-06T09:22:00Z</time>
      </trkpt>
      <trkpt lat="48.12996" lon="7.06219">
        <ele>1020.73</ele>
        <time>2020-09-06T09:22:28Z</time>
      </trkpt>
      <trkpt lat="48.13013" lon="7.06196">
        <ele>1019.87</ele>
        <time>2020-09-06T09:22:49Z</time>
      </trkpt>
      <trkpt lat="48.13025" lon="7.06173">
        <ele>1017.99</ele>
        <time>2020-09-06T09:23:10Z</time>
      </trkpt>
      <trkpt lat="48.13043" lon="7.06154">
        <ele>1015.53</ele>
        <time>2020-09-06T09:23:35Z</time>
      </trkpt>
      <trkpt lat="48.13068" lon="7.06144">
        <ele>1012.9</ele>
        <time>2020-09-06T09:24:02Z</time>
      </trkpt>
      <trkpt lat="48.1309" lon="7.06152">
        <ele>1014.91</ele>
        <time>2020-09-06T09:24:33Z</time>
      </trkpt>
      <trkpt lat="48.13114" lon="7.06169">
        <ele>1015.61</ele>
        <time>2020-09-06T09:25:07Z</time>
      </trkpt>
      <trkpt lat="48.13118" lon="7.06169">
        <ele>1014.42</ele>
        <time>2020-09-06T09:25:39Z</time>
      </trkpt>
      <trkpt lat="48.13127" lon="7.06175">
        <ele>1014.97</ele>
        <time>2020-09-06T09:26:12Z</time>
      </trkpt>
      <trkpt lat="48.13124" lon="7.06178">
        <ele>1014.87</ele>
        <time>2020-09-06T09:27:09Z</time>
      </trkpt>
      <trkpt lat="48.13136" lon="7.06187">
        <ele>1013.9</ele>
        <time>2020-09-06T09:28:03Z</time>
      </trkpt>
      <trkpt lat="48.13144" lon="7.0619">
        <ele>1013.51</ele>
        <time>2020-09-06T09:28:53Z</time>
      </trkpt>
      <trkpt lat="48.1314" lon="7.0618">
        <ele>1012.7</ele>
        <time>2020-09-06T09:30:00Z</time>
      </trkpt>
      <trkpt lat="48.13129" lon="7.06178">
        <ele>1013.14</ele>
        <time>2020-09-06T09:31:05Z</time>
      </trkpt>
      <trkpt lat="48.13136" lon="7.06176">
        <ele>1012.54</ele>
        <time>2020-09-06T09:32:03Z</time>
      </trkpt>
      <trkpt lat="48.13136" lon="7.06184">
        <ele>1012.14</ele>
        <time>2020-09-06T09:33:24Z</time>
      </trkpt>
      <trkpt lat="48.13142" lon="7.06187">
        <ele>1012.41</ele>
        <time>2020-09-06T09:34:24Z</time>
      </trkpt>
      <trkpt lat="48.13142" lon="7.06183">
        <ele>1012.83</ele>
        <time>2020-09-06T09:35:31Z</time>
      </trkpt>
      <trkpt lat="48.1313" lon="7.0617">
        <ele>1012.89</ele>
        <time>2020-09-06T09:36:07Z</time>
      </trkpt>
      <trkpt lat="48.13131" lon="7.06179">
        <ele>1014.05</ele>
        <time>2020-09-06T09:37:17Z</time>
      </trkpt>
      <trkpt lat="48.13131" lon="7.06176">
        <ele>1014.3</ele>
        <time>2020-09-06T09:39:17Z</time>
      </trkpt>
      <trkpt lat="48.13132" lon="7.0618">
        <ele>1017.49</ele>
        <time>2020-09-06T09:43:58Z</time>
      </trkpt>
      <trkpt lat="48.1315" lon="7.06193">
        <ele>1019.01</ele>
        <time>2020-09-06T09:44:24Z</time>
      </trkpt>
      <trkpt lat="48.13167" lon="7.06217">
        <ele>1019.82</ele>
        <time>2020-09-06T09:44:55Z</time>
      </trkpt>
      <trkpt lat="48.13182" lon="7.06236">
        <ele>1020.91</ele>
        <time>2020-09-06T09:45:19Z</time>
      </trkpt>
      <trkpt lat="48.13194" lon="7.06259">
        <ele>1021.37</ele>
        <time>2020-09-06T09:45:48Z</time>
      </trkpt>
      <trkpt lat="48.13207" lon="7.06284">
        <ele>1022.26</ele>
        <time>2020-09-06T09:46:19Z</time>
      </trkpt>
      <trkpt lat="48.13206" lon="7.06296">
        <ele>1024.25</ele>
        <time>2020-09-06T09:47:17Z</time>
      </trkpt>
      <trkpt lat="48.13223" lon="7.06309">
        <ele>1024.55</ele>
        <time>2020-09-06T09:47:59Z</time>
      </trkpt>
      <trkpt lat="48.1324" lon="7.06326">
        <ele>1025.21</ele>
        <time>2020-09-06T09:48:19Z</time>
      </trkpt>
      <trkpt lat="48.13255" lon="7.06346">
        <ele>1025.65</ele>
        <time>2020-09-06T09:48:38Z</time>
      </trkpt>
      <trkpt lat="48.13271" lon="7.06368">
        <ele>1027.33</ele>
        <time>2020-09-06T09:48:58Z</time>
      </trkpt>
      <trkpt lat="48.13284" lon="7.06388">
        <ele>1028.07</ele>
        <time>2020-09-06T09:49:24Z</time>
      </trkpt>
      <trkpt lat="48.13303" lon="7.06388">
        <ele>1029.68</ele>
        <time>2020-09-06T09:49:51Z</time>
      </trkpt>
      <trkpt lat="48.13322" lon="7.06385">
        <ele>1030.74</ele>
        <time>2020-09-06T09:50:12Z</time>
      </trkpt>
      <trkpt lat="48.13342" lon="7.06383">
        <ele>1032.03</ele>
        <time>2020-09-06T09:50:33Z</time>
      </trkpt>
      <trkpt lat="48.13361" lon="7.06383">
        <ele>1032.6</ele>
        <time>2020-09-06T09:50:52Z</time>
      </trkpt>
      <trkpt lat="48.1338" lon="7.06383">
        <ele>1033.16</ele>
        <time>2020-09-06T09:51:13Z</time>
      </trkpt>
      <trkpt lat="48.134" lon="7.06387">
        <ele>1034.12</ele>
        <time>2020-09-06T09:51:35Z</time>
      </trkpt>
      <trkpt lat="48.13418" lon="7.06396">
        <ele>1035.73</ele>
        <time>2020-09-06T09:51:58Z</time>
      </trkpt>
      <trkpt lat="48.13435" lon="7.06412">
        <ele>1036.43</ele>
        <time>2020-09-06T09:52:21Z</time>
      </trkpt>
      <trkpt lat="48.13448" lon="7.06434">
        <ele>1037.51</ele>
        <time>2020-09-06T09:52:44Z</time>
      </trkpt>
      <trkpt lat="48.13456" lon="7.06455">
        <ele>1039.02</ele>
        <time>2020-09-06T09:53:31Z</time>
      </trkpt>
      <trkpt lat="48.13445" lon="7.06476">
        <ele>1043.73</ele>
        <time>2020-09-06T09:54:50Z</time>
      </trkpt>
      <trkpt lat="48.13431" lon="7.06496">
        <ele>1047.2</ele>
        <time>2020-09-06T09:55:18Z</time>
      </trkpt>
      <trkpt lat="48.13418" lon="7.06518">
        <ele>1051.75</ele>
        <time>2020-09-06T09:55:42Z</time>
      </trkpt>
      <trkpt lat="48.13407" lon="7.0654">
        <ele>1055.38</ele>
        <time>2020-09-06T09:56:05Z</time>
      </trkpt>
      <trkpt lat="48.13394" lon="7.0656">
        <ele>1057.08</ele>
        <time>2020-09-06T09:56:26Z</time>
      </trkpt>
      <trkpt lat="48.13383" lon="7.06577">
        <ele>1059.24</ele>
        <time>2020-09-06T09:58:59Z</time>
      </trkpt>
      <trkpt lat="48.13365" lon="7.06589">
        <ele>1057.66</ele>
        <time>2020-09-06T09:59:21Z</time>
      </trkpt>
      <trkpt lat="48.13348" lon="7.06606">
        <ele>1057.1</ele>
        <time>2020-09-06T09:59:48Z</time>
      </trkpt>
      <trkpt lat="48.13333" lon="7.06621">
        <ele>1056.88</ele>
        <time>2020-09-06T10:00:26Z</time>
      </trkpt>
      <trkpt lat="48.13315" lon="7.06635">
        <ele>1058.35</ele>
        <time>2020-09-06T10:01:02Z</time>
      </trkpt>
      <trkpt lat="48.13311" lon="7.0666">
        <ele>1059.91</ele>
        <time>2020-09-06T10:01:49Z</time>
      </trkpt>
      <trkpt lat="48.13292" lon="7.06678">
        <ele>1062.54</ele>
        <time>2020-09-06T10:02:32Z</time>
      </trkpt>
      <trkpt lat="48.13265" lon="7.06682">
        <ele>1064.16</ele>
        <time>2020-09-06T10:03:10Z</time>
      </trkpt>
      <trkpt lat="48.13251" lon="7.0671">
        <ele>1066.59</ele>
        <time>2020-09-06T10:03:48Z</time>
      </trkpt>
      <trkpt lat="48.13231" lon="7.06704">
        <ele>1070.09</ele>
        <time>2020-09-06T10:04:29Z</time>
      </trkpt>
      <trkpt lat="48.13213" lon="7.06704">
        <ele>1071.96</ele>
        <time>2020-09-06T10:05:08Z</time>
      </trkpt>
      <trkpt lat="48.13189" lon="7.06719">
        <ele>1077.67</ele>
        <time>2020-09-06T10:05:46Z</time>
      </trkpt>
      <trkpt lat="48.13173" lon="7.06735">
        <ele>1082.73</ele>
        <time>2020-09-06T10:06:23Z</time>
      </trkpt>
      <trkpt lat="48.13155" lon="7.06757">
        <ele>1088.86</ele>
        <time>2020-09-06T10:07:07Z</time>
      </trkpt>
      <trkpt lat="48.13138" lon="7.0677">
        <ele>1093</ele>
        <time>2020-09-06T10:07:46Z</time>
      </trkpt>
      <trkpt lat="48.13122" lon="7.0679">
        <ele>1098.57</ele>
        <time>2020-09-06T10:08:31Z</time>
      </trkpt>
      <trkpt lat="48.13105" lon="7.06812">
        <ele>1104</ele>
        <time>2020-09-06T10:09:13Z</time>
      </trkpt>
      <trkpt lat="48.1309" lon="7.06826">
        <ele>1106.27</ele>
        <time>2020-09-06T10:09:55Z</time>
      </trkpt>
      <trkpt lat="48.13076" lon="7.06843">
        <ele>1111.63</ele>
        <time>2020-09-06T10:10:43Z</time>
      </trkpt>
      <trkpt lat="48.13065" lon="7.06856">
        <ele>1114.36</ele>
        <time>2020-09-06T10:11:39Z</time>
      </trkpt>
      <trkpt lat="48.13047" lon="7.06875">
        <ele>1119.23</ele>
        <time>2020-09-06T10:12:29Z</time>
      </trkpt>
      <trkpt lat="48.13033" lon="7.06899">
        <ele>1124.39</ele>
        <time>2020-09-06T10:13:08Z</time>
      </trkpt>
      <trkpt lat="48.13015" lon="7.06922">
        <ele>1129</ele>
        <time>2020-09-06T10:13:48Z</time>
      </trkpt>
      <trkpt lat="48.12996" lon="7.06951">
        <ele>1132.96</ele>
        <time>2020-09-06T10:14:28Z</time>
      </trkpt>
      <trkpt lat="48.12975" lon="7.06984">
        <ele>1134.77</ele>
        <time>2020-09-06T10:15:05Z</time>
      </trkpt>
      <trkpt lat="48.12961" lon="7.07008">
        <ele>1135.53</ele>
        <time>2020-09-06T10:15:46Z</time>
      </trkpt>
      <trkpt lat="48.12959" lon="7.07013">
        <ele>1135.54</ele>
        <time>2020-09-06T10:16:53Z</time>
      </trkpt>
      <trkpt lat="48.12963" lon="7.07027">
        <ele>1136.84</ele>
        <time>2020-09-06T10:17:51Z</time>
      </trkpt>
      <trkpt lat="48.12967" lon="7.07063">
        <ele>1137.47</ele>
        <time>2020-09-06T10:18:26Z</time>
      </trkpt>
      <trkpt lat="48.12967" lon="7.07105">
        <ele>1139.92</ele>
        <time>2020-09-06T10:19:05Z</time>
      </trkpt>
      <trkpt lat="48.12969" lon="7.07149">
        <ele>1143.55</ele>
        <time>2020-09-06T10:19:42Z</time>
      </trkpt>
      <trkpt lat="48.12968" lon="7.07188">
        <ele>1145.31</ele>
        <time>2020-09-06T10:20:20Z</time>
      </trkpt>
      <trkpt lat="48.12967" lon="7.07232">
        <ele>1149.36</ele>
        <time>2020-09-06T10:21:00Z</time>
      </trkpt>
      <trkpt lat="48.1297" lon="7.07273">
        <ele>1151.61</ele>
        <time>2020-09-06T10:21:36Z</time>
      </trkpt>
      <trkpt lat="48.12963" lon="7.07305">
        <ele>1155.1</ele>
        <time>2020-09-06T10:22:14Z</time>
      </trkpt>
      <trkpt lat="48.12968" lon="7.07324">
        <ele>1157.47</ele>
        <time>2020-09-06T10:22:54Z</time>
      </trkpt>
      <trkpt lat="48.12968" lon="7.0737">
        <ele>1159.85</ele>
        <time>2020-09-06T10:23:32Z</time>
      </trkpt>
      <trkpt lat="48.12967" lon="7.07416">
        <ele>1163.6</ele>
        <time>2020-09-06T10:24:11Z</time>
      </trkpt>
      <trkpt lat="48.12962" lon="7.07459">
        <ele>1166.37</ele>
        <time>2020-09-06T10:24:44Z</time>
      </trkpt>
      <trkpt lat="48.12961" lon="7.07493">
        <ele>1168.47</ele>
        <time>2020-09-06T10:25:18Z</time>
      </trkpt>
      <trkpt lat="48.12947" lon="7.07524">
        <ele>1168.24</ele>
        <time>2020-09-06T10:25:53Z</time>
      </trkpt>
      <trkpt lat="48.12951" lon="7.07551">
        <ele>1169.49</ele>
        <time>2020-09-06T10:26:31Z</time>
      </trkpt>
      <trkpt lat="48.12947" lon="7.07591">
        <ele>1170.44</ele>
        <time>2020-09-06T10:27:08Z</time>
      </trkpt>
      <trkpt lat="48.12941" lon="7.07629">
        <ele>1171.87</ele>
        <time>2020-09-06T10:27:41Z</time>
      </trkpt>
      <trkpt lat="48.12939" lon="7.07656">
        <ele>1172.94</ele>
        <time>2020-09-06T10:28:15Z</time>
      </trkpt>
      <trkpt lat="48.12933" lon="7.07696">
        <ele>1175.13</ele>
        <time>2020-09-06T10:28:50Z</time>
      </trkpt>
      <trkpt lat="48.12934" lon="7.07732">
        <ele>1177.21</ele>
        <time>2020-09-06T10:29:16Z</time>
      </trkpt>
      <trkpt lat="48.12935" lon="7.07765">
        <ele>1178.36</ele>
        <time>2020-09-06T10:29:48Z</time>
      </trkpt>
      <trkpt lat="48.1294" lon="7.07803">
        <ele>1180.38</ele>
        <time>2020-09-06T10:30:27Z</time>
      </trkpt>
      <trkpt lat="48.12943" lon="7.07841">
        <ele>1183.65</ele>
        <time>2020-09-06T10:30:56Z</time>
      </trkpt>
      <trkpt lat="48.12938" lon="7.07878">
        <ele>1185.93</ele>
        <time>2020-09-06T10:31:24Z</time>
      </trkpt>
      <trkpt lat="48.12941" lon="7.07909">
        <ele>1188.19</ele>
        <time>2020-09-06T10:31:51Z</time>
      </trkpt>
      <trkpt lat="48.12937" lon="7.07942">
        <ele>1191.15</ele>
        <time>2020-09-06T10:32:22Z</time>
      </trkpt>
      <trkpt lat="48.12936" lon="7.07978">
        <ele>1193.59</ele>
        <time>2020-09-06T10:32:53Z</time>
      </trkpt>
      <trkpt lat="48.12943" lon="7.08014">
        <ele>1197.01</ele>
        <time>2020-09-06T10:33:23Z</time>
      </trkpt>
      <trkpt lat="48.12936" lon="7.08051">
        <ele>1200.01</ele>
        <time>2020-09-06T10:33:51Z</time>
      </trkpt>
      <trkpt lat="48.12938" lon="7.08081">
        <ele>1201.83</ele>
        <time>2020-09-06T10:34:16Z</time>
      </trkpt>
      <trkpt lat="48.12939" lon="7.08115">
        <ele>1203.85</ele>
        <time>2020-09-06T10:34:54Z</time>
      </trkpt>
      <trkpt lat="48.12938" lon="7.08145">
        <ele>1206.34</ele>
        <time>2020-09-06T10:35:27Z</time>
      </trkpt>
      <trkpt lat="48.12934" lon="7.08173">
        <ele>1209.24</ele>
        <time>2020-09-06T10:35:55Z</time>
      </trkpt>
      <trkpt lat="48.12929" lon="7.08206">
        <ele>1211.98</ele>
        <time>2020-09-06T10:36:21Z</time>
      </trkpt>
      <trkpt lat="48.12934" lon="7.08237">
        <ele>1214.97</ele>
        <time>2020-09-06T10:36:49Z</time>
      </trkpt>
      <trkpt lat="48.12932" lon="7.0827">
        <ele>1216.8</ele>
        <time>2020-09-06T10:37:14Z</time>
      </trkpt>
      <trkpt lat="48.12932" lon="7.08299">
        <ele>1220.23</ele>
        <time>2020-09-06T10:37:40Z</time>
      </trkpt>
      <trkpt lat="48.12933" lon="7.08335">
        <ele>1222.51</ele>
        <time>2020-09-06T10:38:06Z</time>
      </trkpt>
      <trkpt lat="48.12927" lon="7.08368">
        <ele>1225.18</ele>
        <time>2020-09-06T10:38:28Z</time>
      </trkpt>
      <trkpt lat="48.12927" lon="7.08399">
        <ele>1226.32</ele>
        <time>2020-09-06T10:38:50Z</time>
      </trkpt>
      <trkpt lat="48.12914" lon="7.08399">
        <ele>1227.72</ele>
        <time>2020-09-06T10:40:22Z</time>
      </trkpt>
      <trkpt lat="48.12897" lon="7.08411">
        <ele>1229.06</ele>
        <time>2020-09-06T10:40:43Z</time>
      </trkpt>
      <trkpt lat="48.12876" lon="7.08413">
        <ele>1229.83</ele>
        <time>2020-09-06T10:41:08Z</time>
      </trkpt>
      <trkpt lat="48.12857" lon="7.08418">
        <ele>1230.19</ele>
        <time>2020-09-06T10:41:31Z</time>
      </trkpt>
      <trkpt lat="48.12836" lon="7.0842">
        <ele>1230.5</ele>
        <time>2020-09-06T10:41:55Z</time>
      </trkpt>
      <trkpt lat="48.12815" lon="7.08419">
        <ele>1231.88</ele>
        <time>2020-09-06T10:42:16Z</time>
      </trkpt>
      <trkpt lat="48.12795" lon="7.08419">
        <ele>1232.02</ele>
        <time>2020-09-06T10:42:45Z</time>
      </trkpt>
      <trkpt lat="48.12784" lon="7.08414">
        <ele>1232.32</ele>
        <time>2020-09-06T10:43:29Z</time>
      </trkpt>
      <trkpt lat="48.12765" lon="7.08415">
        <ele>1232.43</ele>
        <time>2020-09-06T10:43:52Z</time>
      </trkpt>
      <trkpt lat="48.12743" lon="7.08421">
        <ele>1233.16</ele>
        <time>2020-09-06T10:44:19Z</time>
      </trkpt>
      <trkpt lat="48.12724" lon="7.08418">
        <ele>1234.02</ele>
        <time>2020-09-06T10:45:03Z</time>
      </trkpt>
      <trkpt lat="48.12711" lon="7.08424">
        <ele>1236.78</ele>
        <time>2020-09-06T10:47:39Z</time>
      </trkpt>
      <trkpt lat="48.12692" lon="7.08427">
        <ele>1238.2</ele>
        <time>2020-09-06T10:48:08Z</time>
      </trkpt>
      <trkpt lat="48.12671" lon="7.08433">
        <ele>1239.51</ele>
        <time>2020-09-06T10:48:33Z</time>
      </trkpt>
      <trkpt lat="48.1265" lon="7.08429">
        <ele>1240.95</ele>
        <time>2020-09-06T10:48:57Z</time>
      </trkpt>
      <trkpt lat="48.12628" lon="7.08427">
        <ele>1242.68</ele>
        <time>2020-09-06T10:49:23Z</time>
      </trkpt>
      <trkpt lat="48.12606" lon="7.08422">
        <ele>1244.28</ele>
        <time>2020-09-06T10:49:48Z</time>
      </trkpt>
      <trkpt lat="48.12586" lon="7.08428">
        <ele>1246.4</ele>
        <time>2020-09-06T10:50:17Z</time>
      </trkpt>
      <trkpt lat="48.12568" lon="7.08418">
        <ele>1247.28</ele>
        <time>2020-09-06T10:50:41Z</time>
      </trkpt>
      <trkpt lat="48.12548" lon="7.08409">
        <ele>1248.63</ele>
        <time>2020-09-06T10:51:04Z</time>
      </trkpt>
      <trkpt lat="48.12527" lon="7.08402">
        <ele>1250.11</ele>
        <time>2020-09-06T10:51:25Z</time>
      </trkpt>
      <trkpt lat="48.12506" lon="7.08406">
        <ele>1251.41</ele>
        <time>2020-09-06T10:51:53Z</time>
      </trkpt>
      <trkpt lat="48.12487" lon="7.08408">
        <ele>1255.13</ele>
        <time>2020-09-06T10:52:15Z</time>
      </trkpt>
      <trkpt lat="48.12468" lon="7.08418">
        <ele>1256.46</ele>
        <time>2020-09-06T10:52:38Z</time>
      </trkpt>
      <trkpt lat="48.12451" lon="7.08429">
        <ele>1258.26</ele>
        <time>2020-09-06T10:53:46Z</time>
      </trkpt>
      <trkpt lat="48.1245" lon="7.08458">
        <ele>1258.15</ele>
        <time>2020-09-06T10:54:06Z</time>
      </trkpt>
      <trkpt lat="48.12454" lon="7.08478">
        <ele>1255.93</ele>
        <time>2020-09-06T10:55:06Z</time>
      </trkpt>
      <trkpt lat="48.12472" lon="7.08467">
        <ele>1253.72</ele>
        <time>2020-09-06T10:55:34Z</time>
      </trkpt>
      <trkpt lat="48.12476" lon="7.08461">
        <ele>1254.27</ele>
        <time>2020-09-06T10:58:07Z</time>
      </trkpt>
      <trkpt lat="48.12472" lon="7.08461">
        <ele>1255.76</ele>
        <time>2020-09-06T11:02:36Z</time>
      </trkpt>
      <trkpt lat="48.12473" lon="7.08462">
        <ele>1256.31</ele>
        <time>2020-09-06T11:06:00Z</time>
      </trkpt>
      <trkpt lat="48.12475" lon="7.08464">
        <ele>1256.26</ele>
        <time>2020-09-06T11:09:39Z</time>
      </trkpt>
      <trkpt lat="48.12475" lon="7.08464">
        <ele>1256.59</ele>
        <time>2020-09-06T11:12:01Z</time>
      </trkpt>
      <trkpt lat="48.12476" lon="7.08463">
        <ele>1256.98</ele>
        <time>2020-09-06T11:15:09Z</time>
      </trkpt>
      <trkpt lat="48.12475" lon="7.08457">
        <ele>1257.04</ele>
        <time>2020-09-06T11:16:54Z</time>
      </trkpt>
      <trkpt lat="48.12477" lon="7.08459">
        <ele>1257.54</ele>
        <time>2020-09-06T11:18:28Z</time>
      </trkpt>
      <trkpt lat="48.12476" lon="7.08458">
        <ele>1257.14</ele>
        <time>2020-09-06T11:20:00Z</time>
      </trkpt>
      <trkpt lat="48.12475" lon="7.08454">
        <ele>1257.34</ele>
        <time>2020-09-06T11:21:37Z</time>
      </trkpt>
      <trkpt lat="48.12473" lon="7.0846">
        <ele>1257.09</ele>
        <time>2020-09-06T11:22:41Z</time>
      </trkpt>
      <trkpt lat="48.12478" lon="7.08455">
        <ele>1254.53</ele>
        <time>2020-09-06T11:23:26Z</time>
      </trkpt>
      <trkpt lat="48.12474" lon="7.08456">
        <ele>1256.54</ele>
        <time>2020-09-06T11:24:29Z</time>
      </trkpt>
      <trkpt lat="48.12468" lon="7.08452">
        <ele>1255.18</ele>
        <time>2020-09-06T11:25:59Z</time>
      </trkpt>
      <trkpt lat="48.12475" lon="7.08453">
        <ele>1256.13</ele>
        <time>2020-09-06T11:26:49Z</time>
      </trkpt>
      <trkpt lat="48.12477" lon="7.08451">
        <ele>1254.93</ele>
        <time>2020-09-06T11:27:34Z</time>
      </trkpt>
      <trkpt lat="48.12475" lon="7.08454">
        <ele>1255.16</ele>
        <time>2020-09-06T11:28:19Z</time>
      </trkpt>
      <trkpt lat="48.12474" lon="7.08456">
        <ele>1254.89</ele>
        <time>2020-09-06T11:29:22Z</time>
      </trkpt>
      <trkpt lat="48.1247" lon="7.08459">
        <ele>1253.98</ele>
        <time>2020-09-06T11:30:24Z</time>
      </trkpt>
      <trkpt lat="48.12474" lon="7.0846">
        <ele>1254.44</ele>
        <time>2020-09-06T11:31:21Z</time>
      </trkpt>
      <trkpt lat="48.12469" lon="7.08461">
        <ele>1249.51</ele>
        <time>2020-09-06T11:32:27Z</time>
      </trkpt>
      <trkpt lat="48.12468" lon="7.08461">
        <ele>1253.47</ele>
        <time>2020-09-06T11:33:25Z</time>
      </trkpt>
      <trkpt lat="48.12468" lon="7.08458">
        <ele>1254.1</ele>
        <time>2020-09-06T11:34:28Z</time>
      </trkpt>
      <trkpt lat="48.12474" lon="7.08455">
        <ele>1253.94</ele>
        <time>2020-09-06T11:35:31Z</time>
      </trkpt>
      <trkpt lat="48.1247" lon="7.08454">
        <ele>1253.24</ele>
        <time>2020-09-06T11:36:35Z</time>
      </trkpt>
      <trkpt lat="48.12467" lon="7.08456">
        <ele>1253.54</ele>
        <time>2020-09-06T11:37:40Z</time>
      </trkpt>
      <trkpt lat="48.12465" lon="7.08453">
        <ele>1253.3</ele>
        <time>2020-09-06T11:38:50Z</time>
      </trkpt>
      <trkpt lat="48.12469" lon="7.08456">
        <ele>1252.97</ele>
        <time>2020-09-06T11:40:09Z</time>
      </trkpt>
      <trkpt lat="48.12477" lon="7.0847">
        <ele>1252.84</ele>
        <time>2020-09-06T11:42:45Z</time>
      </trkpt>
      <trkpt lat="48.12475" lon="7.08442">
        <ele>1255.26</ele>
        <time>2020-09-06T11:45:27Z</time>
      </trkpt>
      <trkpt lat="48.12466" lon="7.08422">
        <ele>1256.21</ele>
        <time>2020-09-06T11:46:39Z</time>
      </trkpt>
      <trkpt lat="48.12449" lon="7.08422">
        <ele>1257.34</ele>
        <time>2020-09-06T11:47:03Z</time>
      </trkpt>
      <trkpt lat="48.12429" lon="7.08419">
        <ele>1260.13</ele>
        <time>2020-09-06T11:47:31Z</time>
      </trkpt>
      <trkpt lat="48.12405" lon="7.08412">
        <ele>1262.04</ele>
        <time>2020-09-06T11:48:01Z</time>
      </trkpt>
      <trkpt lat="48.12382" lon="7.08406">
        <ele>1263.23</ele>
        <time>2020-09-06T11:48:25Z</time>
      </trkpt>
      <trkpt lat="48.12362" lon="7.08401">
        <ele>1265.08</ele>
        <time>2020-09-06T11:48:47Z</time>
      </trkpt>
      <trkpt lat="48.12343" lon="7.08405">
        <ele>1266.18</ele>
        <time>2020-09-06T11:49:16Z</time>
      </trkpt>
      <trkpt lat="48.12323" lon="7.08402">
        <ele>1268.84</ele>
        <time>2020-09-06T11:49:42Z</time>
      </trkpt>
      <trkpt lat="48.12303" lon="7.08395">
        <ele>1271.01</ele>
        <time>2020-09-06T11:50:09Z</time>
      </trkpt>
      <trkpt lat="48.1228" lon="7.08387">
        <ele>1272.75</ele>
        <time>2020-09-06T11:50:29Z</time>
      </trkpt>
      <trkpt lat="48.1226" lon="7.08382">
        <ele>1274.51</ele>
        <time>2020-09-06T11:50:50Z</time>
      </trkpt>
      <trkpt lat="48.12241" lon="7.08373">
        <ele>1275.93</ele>
        <time>2020-09-06T11:51:08Z</time>
      </trkpt>
      <trkpt lat="48.12221" lon="7.08368">
        <ele>1277.11</ele>
        <time>2020-09-06T11:51:25Z</time>
      </trkpt>
      <trkpt lat="48.12202" lon="7.08365">
        <ele>1279.21</ele>
        <time>2020-09-06T11:51:48Z</time>
      </trkpt>
      <trkpt lat="48.12183" lon="7.08359">
        <ele>1281.16</ele>
        <time>2020-09-06T11:52:06Z</time>
      </trkpt>
      <trkpt lat="48.12165" lon="7.08347">
        <ele>1282.78</ele>
        <time>2020-09-06T11:52:23Z</time>
      </trkpt>
      <trkpt lat="48.12147" lon="7.08338">
        <ele>1284.75</ele>
        <time>2020-09-06T11:52:40Z</time>
      </trkpt>
      <trkpt lat="48.12129" lon="7.08328">
        <ele>1285.76</ele>
        <time>2020-09-06T11:52:56Z</time>
      </trkpt>
      <trkpt lat="48.12118" lon="7.08315">
        <ele>1286.61</ele>
        <time>2020-09-06T11:55:30Z</time>
      </trkpt>
      <trkpt lat="48.12101" lon="7.08311">
        <ele>1288.11</ele>
        <time>2020-09-06T11:56:22Z</time>
      </trkpt>
      <trkpt lat="48.12083" lon="7.08301">
        <ele>1289.92</ele>
        <time>2020-09-06T11:56:43Z</time>
      </trkpt>
      <trkpt lat="48.12065" lon="7.08293">
        <ele>1291.31</ele>
        <time>2020-09-06T11:57:01Z</time>
      </trkpt>
      <trkpt lat="48.12046" lon="7.08284">
        <ele>1291.98</ele>
        <time>2020-09-06T11:57:20Z</time>
      </trkpt>
      <trkpt lat="48.12032" lon="7.08271">
        <ele>1292.49</ele>
        <time>2020-09-06T11:57:56Z</time>
      </trkpt>
      <trkpt lat="48.12017" lon="7.08255">
        <ele>1293.51</ele>
        <time>2020-09-06T11:58:19Z</time>
      </trkpt>
      <trkpt lat="48.12002" lon="7.08242">
        <ele>1294.14</ele>
        <time>2020-09-06T11:58:40Z</time>
      </trkpt>
      <trkpt lat="48.11984" lon="7.08239">
        <ele>1294.8</ele>
        <time>2020-09-06T11:58:58Z</time>
      </trkpt>
      <trkpt lat="48.11966" lon="7.08233">
        <ele>1294.84</ele>
        <time>2020-09-06T11:59:16Z</time>
      </trkpt>
      <trkpt lat="48.1195" lon="7.0822">
        <ele>1295.4</ele>
        <time>2020-09-06T11:59:34Z</time>
      </trkpt>
      <trkpt lat="48.11931" lon="7.08215">
        <ele>1296.07</ele>
        <time>2020-09-06T11:59:52Z</time>
      </trkpt>
      <trkpt lat="48.11913" lon="7.08207">
        <ele>1295.56</ele>
        <time>2020-09-06T12:00:14Z</time>
      </trkpt>
      <trkpt lat="48.11898" lon="7.08196">
        <ele>1296.38</ele>
        <time>2020-09-06T12:00:32Z</time>
      </trkpt>
      <trkpt lat="48.1188" lon="7.08187">
        <ele>1295.92</ele>
        <time>2020-09-06T12:00:50Z</time>
      </trkpt>
      <trkpt lat="48.11862" lon="7.08178">
        <ele>1296.5</ele>
        <time>2020-09-06T12:01:08Z</time>
      </trkpt>
      <trkpt lat="48.11844" lon="7.08173">
        <ele>1296.95</ele>
        <time>2020-09-06T12:01:26Z</time>
      </trkpt>
      <trkpt lat="48.11825" lon="7.08166">
        <ele>1296.85</ele>
        <time>2020-09-06T12:01:44Z</time>
      </trkpt>
      <trkpt lat="48.11807" lon="7.08157">
        <ele>1296.91</ele>
        <time>2020-09-06T12:02:02Z</time>
      </trkpt>
      <trkpt lat="48.1179" lon="7.08151">
        <ele>1296.8</ele>
        <time>2020-09-06T12:02:22Z</time>
      </trkpt>
      <trkpt lat="48.11773" lon="7.08141">
        <ele>1296.23</ele>
        <time>2020-09-06T12:02:38Z</time>
      </trkpt>
      <trkpt lat="48.11756" lon="7.08131">
        <ele>1295.47</ele>
        <time>2020-09-06T12:02:54Z</time>
      </trkpt>
      <trkpt lat="48.11738" lon="7.0812">
        <ele>1295.25</ele>
        <time>2020-09-06T12:03:11Z</time>
      </trkpt>
      <trkpt lat="48.11722" lon="7.0811">
        <ele>1294.64</ele>
        <time>2020-09-06T12:03:27Z</time>
      </trkpt>
      <trkpt lat="48.11706" lon="7.08098">
        <ele>1293.61</ele>
        <time>2020-09-06T12:03:45Z</time>
      </trkpt>
      <trkpt lat="48.11689" lon="7.08087">
        <ele>1293.53</ele>
        <time>2020-09-06T12:04:02Z</time>
      </trkpt>
      <trkpt lat="48.11673" lon="7.08076">
        <ele>1293.2</ele>
        <time>2020-09-06T12:04:27Z</time>
      </trkpt>
      <trkpt lat="48.11672" lon="7.08073">
        <ele>1293.76</ele>
        <time>2020-09-06T12:05:50Z</time>
      </trkpt>
      <trkpt lat="48.11662" lon="7.08073">
        <ele>1294.38</ele>
        <time>2020-09-06T12:07:24Z</time>
      </trkpt>
      <trkpt lat="48.11646" lon="7.08062">
        <ele>1293.91</ele>
        <time>2020-09-06T12:07:48Z</time>
      </trkpt>
      <trkpt lat="48.11633" lon="7.08042">
        <ele>1293.13</ele>
        <time>2020-09-06T12:08:07Z</time>
      </trkpt>
      <trkpt lat="48.11617" lon="7.08028">
        <ele>1292.86</ele>
        <time>2020-09-06T12:08:25Z</time>
      </trkpt>
      <trkpt lat="48.11599" lon="7.08015">
        <ele>1292.83</ele>
        <time>2020-09-06T12:08:44Z</time>
      </trkpt>
      <trkpt lat="48.11579" lon="7.08015">
        <ele>1293.15</ele>
        <time>2020-09-06T12:09:03Z</time>
      </trkpt>
      <trkpt lat="48.1156" lon="7.08013">
        <ele>1294.22</ele>
        <time>2020-09-06T12:09:28Z</time>
      </trkpt>
      <trkpt lat="48.11543" lon="7.08002">
        <ele>1294.76</ele>
        <time>2020-09-06T12:09:47Z</time>
      </trkpt>
      <trkpt lat="48.11526" lon="7.07992">
        <ele>1296.76</ele>
        <time>2020-09-06T12:10:07Z</time>
      </trkpt>
      <trkpt lat="48.11508" lon="7.07983">
        <ele>1297.19</ele>
        <time>2020-09-06T12:10:30Z</time>
      </trkpt>
      <trkpt lat="48.11489" lon="7.07982">
        <ele>1298.35</ele>
        <time>2020-09-06T12:10:49Z</time>
      </trkpt>
      <trkpt lat="48.11472" lon="7.07971">
        <ele>1298.95</ele>
        <time>2020-09-06T12:11:07Z</time>
      </trkpt>
      <trkpt lat="48.11455" lon="7.0796">
        <ele>1300.66</ele>
        <time>2020-09-06T12:11:30Z</time>
      </trkpt>
      <trkpt lat="48.11436" lon="7.07951">
        <ele>1301.03</ele>
        <time>2020-09-06T12:11:53Z</time>
      </trkpt>
      <trkpt lat="48.11418" lon="7.07945">
        <ele>1302.42</ele>
        <time>2020-09-06T12:12:15Z</time>
      </trkpt>
      <trkpt lat="48.11399" lon="7.07941">
        <ele>1302.87</ele>
        <time>2020-09-06T12:12:36Z</time>
      </trkpt>
      <trkpt lat="48.11381" lon="7.07931">
        <ele>1303.01</ele>
        <time>2020-09-06T12:12:57Z</time>
      </trkpt>
      <trkpt lat="48.11365" lon="7.07919">
        <ele>1302.17</ele>
        <time>2020-09-06T12:13:20Z</time>
      </trkpt>
      <trkpt lat="48.11347" lon="7.07911">
        <ele>1301.46</ele>
        <time>2020-09-06T12:13:41Z</time>
      </trkpt>
      <trkpt lat="48.11329" lon="7.07906">
        <ele>1301.05</ele>
        <time>2020-09-06T12:14:00Z</time>
      </trkpt>
      <trkpt lat="48.11311" lon="7.079">
        <ele>1300.06</ele>
        <time>2020-09-06T12:14:22Z</time>
      </trkpt>
      <trkpt lat="48.11294" lon="7.07888">
        <ele>1298.81</ele>
        <time>2020-09-06T12:14:41Z</time>
      </trkpt>
      <trkpt lat="48.11276" lon="7.07882">
        <ele>1297.99</ele>
        <time>2020-09-06T12:15:02Z</time>
      </trkpt>
      <trkpt lat="48.11259" lon="7.07872">
        <ele>1296.92</ele>
        <time>2020-09-06T12:15:21Z</time>
      </trkpt>
      <trkpt lat="48.11241" lon="7.07863">
        <ele>1295.12</ele>
        <time>2020-09-06T12:15:40Z</time>
      </trkpt>
      <trkpt lat="48.11223" lon="7.07852">
        <ele>1294.58</ele>
        <time>2020-09-06T12:15:57Z</time>
      </trkpt>
      <trkpt lat="48.11205" lon="7.07844">
        <ele>1293.59</ele>
        <time>2020-09-06T12:16:16Z</time>
      </trkpt>
      <trkpt lat="48.11188" lon="7.07835">
        <ele>1292.76</ele>
        <time>2020-09-06T12:16:35Z</time>
      </trkpt>
      <trkpt lat="48.11169" lon="7.07828">
        <ele>1291.5</ele>
        <time>2020-09-06T12:16:54Z</time>
      </trkpt>
      <trkpt lat="48.1115" lon="7.07821">
        <ele>1290.34</ele>
        <time>2020-09-06T12:17:13Z</time>
      </trkpt>
      <trkpt lat="48.11132" lon="7.07811">
        <ele>1289.61</ele>
        <time>2020-09-06T12:17:31Z</time>
      </trkpt>
      <trkpt lat="48.11113" lon="7.07807">
        <ele>1289.59</ele>
        <time>2020-09-06T12:17:49Z</time>
      </trkpt>
      <trkpt lat="48.11094" lon="7.078">
        <ele>1289.17</ele>
        <time>2020-09-06T12:18:05Z</time>
      </trkpt>
      <trkpt lat="48.11077" lon="7.07789">
        <ele>1288.89</ele>
        <time>2020-09-06T12:18:26Z</time>
      </trkpt>
      <trkpt lat="48.11064" lon="7.07779">
        <ele>1288.16</ele>
        <time>2020-09-06T12:20:52Z</time>
      </trkpt>
      <trkpt lat="48.11046" lon="7.07771">
        <ele>1288.36</ele>
        <time>2020-09-06T12:21:11Z</time>
      </trkpt>
      <trkpt lat="48.11028" lon="7.07763">
        <ele>1289.75</ele>
        <time>2020-09-06T12:21:32Z</time>
      </trkpt>
      <trkpt lat="48.11011" lon="7.07753">
        <ele>1290.14</ele>
        <time>2020-09-06T12:21:50Z</time>
      </trkpt>
      <trkpt lat="48.10992" lon="7.07745">
        <ele>1291.49</ele>
        <time>2020-09-06T12:22:08Z</time>
      </trkpt>
      <trkpt lat="48.10974" lon="7.07735">
        <ele>1292.64</ele>
        <time>2020-09-06T12:22:27Z</time>
      </trkpt>
      <trkpt lat="48.10955" lon="7.07728">
        <ele>1293.36</ele>
        <time>2020-09-06T12:22:46Z</time>
      </trkpt>
      <trkpt lat="48.10937" lon="7.07719">
        <ele>1295.07</ele>
        <time>2020-09-06T12:23:05Z</time>
      </trkpt>
      <trkpt lat="48.10917" lon="7.07712">
        <ele>1295.08</ele>
        <time>2020-09-06T12:23:24Z</time>
      </trkpt>
      <trkpt lat="48.10898" lon="7.07706">
        <ele>1297.82</ele>
        <time>2020-09-06T12:23:45Z</time>
      </trkpt>
      <trkpt lat="48.10882" lon="7.07688">
        <ele>1298.83</ele>
        <time>2020-09-06T12:24:05Z</time>
      </trkpt>
      <trkpt lat="48.10868" lon="7.07668">
        <ele>1300.54</ele>
        <time>2020-09-06T12:24:27Z</time>
      </trkpt>
      <trkpt lat="48.10865" lon="7.0764">
        <ele>1298.64</ele>
        <time>2020-09-06T12:24:50Z</time>
      </trkpt>
      <trkpt lat="48.10865" lon="7.07614">
        <ele>1296.27</ele>
        <time>2020-09-06T12:25:12Z</time>
      </trkpt>
      <trkpt lat="48.10863" lon="7.07586">
        <ele>1293.85</ele>
        <time>2020-09-06T12:25:36Z</time>
      </trkpt>
      <trkpt lat="48.10859" lon="7.07559">
        <ele>1291.94</ele>
        <time>2020-09-06T12:25:57Z</time>
      </trkpt>
      <trkpt lat="48.10856" lon="7.07532">
        <ele>1289.62</ele>
        <time>2020-09-06T12:26:19Z</time>
      </trkpt>
      <trkpt lat="48.10852" lon="7.07504">
        <ele>1288.21</ele>
        <time>2020-09-06T12:26:41Z</time>
      </trkpt>
      <trkpt lat="48.1085" lon="7.07477">
        <ele>1285.69</ele>
        <time>2020-09-06T12:27:01Z</time>
      </trkpt>
      <trkpt lat="48.10849" lon="7.07449">
        <ele>1283.39</ele>
        <time>2020-09-06T12:27:21Z</time>
      </trkpt>
      <trkpt lat="48.10845" lon="7.07422">
        <ele>1282.58</ele>
        <time>2020-09-06T12:27:42Z</time>
      </trkpt>
      <trkpt lat="48.10844" lon="7.07394">
        <ele>1281.36</ele>
        <time>2020-09-06T12:27:58Z</time>
      </trkpt>
      <trkpt lat="48.1084" lon="7.07365">
        <ele>1281.28</ele>
        <time>2020-09-06T12:28:15Z</time>
      </trkpt>
      <trkpt lat="48.10836" lon="7.07338">
        <ele>1280.19</ele>
        <time>2020-09-06T12:28:32Z</time>
      </trkpt>
      <trkpt lat="48.10829" lon="7.07311">
        <ele>1280.62</ele>
        <time>2020-09-06T12:28:49Z</time>
      </trkpt>
      <trkpt lat="48.10823" lon="7.07284">
        <ele>1280.8</ele>
        <time>2020-09-06T12:29:07Z</time>
      </trkpt>
      <trkpt lat="48.10821" lon="7.07256">
        <ele>1281.12</ele>
        <time>2020-09-06T12:29:26Z</time>
      </trkpt>
      <trkpt lat="48.10811" lon="7.07235">
        <ele>1282.22</ele>
        <time>2020-09-06T12:29:47Z</time>
      </trkpt>
      <trkpt lat="48.10802" lon="7.07209">
        <ele>1282.97</ele>
        <time>2020-09-06T12:30:09Z</time>
      </trkpt>
      <trkpt lat="48.10793" lon="7.07185">
        <ele>1284.91</ele>
        <time>2020-09-06T12:30:33Z</time>
      </trkpt>
      <trkpt lat="48.1078" lon="7.07163">
        <ele>1287.94</ele>
        <time>2020-09-06T12:31:04Z</time>
      </trkpt>
      <trkpt lat="48.10766" lon="7.07144">
        <ele>1289.62</ele>
        <time>2020-09-06T12:31:36Z</time>
      </trkpt>
      <trkpt lat="48.10758" lon="7.07124">
        <ele>1290.95</ele>
        <time>2020-09-06T12:32:50Z</time>
      </trkpt>
      <trkpt lat="48.10741" lon="7.07115">
        <ele>1292.75</ele>
        <time>2020-09-06T12:33:14Z</time>
      </trkpt>
      <trkpt lat="48.10725" lon="7.07105">
        <ele>1294.1</ele>
        <time>2020-09-06T12:33:35Z</time>
      </trkpt>
      <trkpt lat="48.10708" lon="7.07095">
        <ele>1294.74</ele>
        <time>2020-09-06T12:33:57Z</time>
      </trkpt>
      <trkpt lat="48.10691" lon="7.07084">
        <ele>1297.05</ele>
        <time>2020-09-06T12:34:17Z</time>
      </trkpt>
      <trkpt lat="48.10679" lon="7.07062">
        <ele>1298.03</ele>
        <time>2020-09-06T12:34:40Z</time>
      </trkpt>
      <trkpt lat="48.10664" lon="7.07045">
        <ele>1298.46</ele>
        <time>2020-09-06T12:35:01Z</time>
      </trkpt>
      <trkpt lat="48.10652" lon="7.07025">
        <ele>1298.7</ele>
        <time>2020-09-06T12:35:48Z</time>
      </trkpt>
      <trkpt lat="48.10635" lon="7.07015">
        <ele>1298.08</ele>
        <time>2020-09-06T12:36:55Z</time>
      </trkpt>
      <trkpt lat="48.10618" lon="7.07005">
        <ele>1297.28</ele>
        <time>2020-09-06T12:37:18Z</time>
      </trkpt>
      <trkpt lat="48.10602" lon="7.07">
        <ele>1295.4</ele>
        <time>2020-09-06T12:37:59Z</time>
      </trkpt>
      <trkpt lat="48.10586" lon="7.06986">
        <ele>1294.02</ele>
        <time>2020-09-06T12:38:27Z</time>
      </trkpt>
      <trkpt lat="48.10571" lon="7.0698">
        <ele>1290.85</ele>
        <time>2020-09-06T12:39:07Z</time>
      </trkpt>
      <trkpt lat="48.10556" lon="7.06965">
        <ele>1289.01</ele>
        <time>2020-09-06T12:39:37Z</time>
      </trkpt>
      <trkpt lat="48.1054" lon="7.0695">
        <ele>1287.35</ele>
        <time>2020-09-06T12:39:57Z</time>
      </trkpt>
      <trkpt lat="48.10525" lon="7.06936">
        <ele>1285.93</ele>
        <time>2020-09-06T12:40:15Z</time>
      </trkpt>
      <trkpt lat="48.10507" lon="7.06923">
        <ele>1285.39</ele>
        <time>2020-09-06T12:40:32Z</time>
      </trkpt>
      <trkpt lat="48.10491" lon="7.06911">
        <ele>1285.09</ele>
        <time>2020-09-06T12:40:48Z</time>
      </trkpt>
      <trkpt lat="48.10475" lon="7.06898">
        <ele>1286.31</ele>
        <time>2020-09-06T12:41:06Z</time>
      </trkpt>
      <trkpt lat="48.10458" lon="7.06885">
        <ele>1287.05</ele>
        <time>2020-09-06T12:41:24Z</time>
      </trkpt>
      <trkpt lat="48.10443" lon="7.06867">
        <ele>1286.25</ele>
        <time>2020-09-06T12:41:44Z</time>
      </trkpt>
      <trkpt lat="48.10429" lon="7.0685">
        <ele>1286.27</ele>
        <time>2020-09-06T12:42:04Z</time>
      </trkpt>
      <trkpt lat="48.10412" lon="7.06842">
        <ele>1285.38</ele>
        <time>2020-09-06T12:42:21Z</time>
      </trkpt>
      <trkpt lat="48.10396" lon="7.06832">
        <ele>1284.2</ele>
        <time>2020-09-06T12:42:46Z</time>
      </trkpt>
      <trkpt lat="48.10378" lon="7.06826">
        <ele>1283.77</ele>
        <time>2020-09-06T12:43:08Z</time>
      </trkpt>
      <trkpt lat="48.1036" lon="7.06821">
        <ele>1283.75</ele>
        <time>2020-09-06T12:43:29Z</time>
      </trkpt>
      <trkpt lat="48.10341" lon="7.06823">
        <ele>1286.04</ele>
        <time>2020-09-06T12:43:52Z</time>
      </trkpt>
      <trkpt lat="48.10323" lon="7.06818">
        <ele>1289.03</ele>
        <time>2020-09-06T12:44:18Z</time>
      </trkpt>
      <trkpt lat="48.10308" lon="7.06811">
        <ele>1290.57</ele>
        <time>2020-09-06T12:53:42Z</time>
      </trkpt>
      <trkpt lat="48.10323" lon="7.06801">
        <ele>1287.35</ele>
        <time>2020-09-06T12:54:16Z</time>
      </trkpt>
      <trkpt lat="48.1034" lon="7.06792">
        <ele>1284.93</ele>
        <time>2020-09-06T12:54:50Z</time>
      </trkpt>
      <trkpt lat="48.10359" lon="7.06788">
        <ele>1283.29</ele>
        <time>2020-09-06T12:55:10Z</time>
      </trkpt>
      <trkpt lat="48.10376" lon="7.06782">
        <ele>1280.88</ele>
        <time>2020-09-06T12:55:28Z</time>
      </trkpt>
      <trkpt lat="48.10395" lon="7.06779">
        <ele>1280.16</ele>
        <time>2020-09-06T12:55:46Z</time>
      </trkpt>
      <trkpt lat="48.10414" lon="7.06778">
        <ele>1279.76</ele>
        <time>2020-09-06T12:56:04Z</time>
      </trkpt>
      <trkpt lat="48.10432" lon="7.06779">
        <ele>1279.4</ele>
        <time>2020-09-06T12:56:21Z</time>
      </trkpt>
      <trkpt lat="48.1045" lon="7.06782">
        <ele>1279.67</ele>
        <time>2020-09-06T12:56:37Z</time>
      </trkpt>
      <trkpt lat="48.10469" lon="7.06782">
        <ele>1278.84</ele>
        <time>2020-09-06T12:56:55Z</time>
      </trkpt>
      <trkpt lat="48.10488" lon="7.06781">
        <ele>1277.9</ele>
        <time>2020-09-06T12:57:13Z</time>
      </trkpt>
      <trkpt lat="48.10506" lon="7.0679">
        <ele>1277.37</ele>
        <time>2020-09-06T12:57:31Z</time>
      </trkpt>
      <trkpt lat="48.10525" lon="7.06798">
        <ele>1277.29</ele>
        <time>2020-09-06T12:57:49Z</time>
      </trkpt>
      <trkpt lat="48.10544" lon="7.06801">
        <ele>1276.91</ele>
        <time>2020-09-06T12:58:07Z</time>
      </trkpt>
      <trkpt lat="48.10564" lon="7.06799">
        <ele>1276.76</ele>
        <time>2020-09-06T12:58:24Z</time>
      </trkpt>
      <trkpt lat="48.10582" lon="7.06796">
        <ele>1276.49</ele>
        <time>2020-09-06T12:58:41Z</time>
      </trkpt>
      <trkpt lat="48.10599" lon="7.06787">
        <ele>1275.83</ele>
        <time>2020-09-06T12:58:58Z</time>
      </trkpt>
      <trkpt lat="48.10617" lon="7.06777">
        <ele>1274.7</ele>
        <time>2020-09-06T12:59:15Z</time>
      </trkpt>
      <trkpt lat="48.10634" lon="7.06767">
        <ele>1273</ele>
        <time>2020-09-06T12:59:44Z</time>
      </trkpt>
      <trkpt lat="48.1065" lon="7.06754">
        <ele>1271.16</ele>
        <time>2020-09-06T13:00:08Z</time>
      </trkpt>
      <trkpt lat="48.10667" lon="7.06743">
        <ele>1268.44</ele>
        <time>2020-09-06T13:00:24Z</time>
      </trkpt>
      <trkpt lat="48.10682" lon="7.06725">
        <ele>1266.76</ele>
        <time>2020-09-06T13:00:43Z</time>
      </trkpt>
      <trkpt lat="48.10697" lon="7.0671">
        <ele>1264.23</ele>
        <time>2020-09-06T13:01:03Z</time>
      </trkpt>
      <trkpt lat="48.10711" lon="7.06692">
        <ele>1261.75</ele>
        <time>2020-09-06T13:01:26Z</time>
      </trkpt>
      <trkpt lat="48.10724" lon="7.06671">
        <ele>1258.97</ele>
        <time>2020-09-06T13:01:49Z</time>
      </trkpt>
      <trkpt lat="48.10736" lon="7.06649">
        <ele>1257.11</ele>
        <time>2020-09-06T13:02:08Z</time>
      </trkpt>
      <trkpt lat="48.10746" lon="7.06626">
        <ele>1253.85</ele>
        <time>2020-09-06T13:02:32Z</time>
      </trkpt>
      <trkpt lat="48.10757" lon="7.06605">
        <ele>1251.36</ele>
        <time>2020-09-06T13:02:53Z</time>
      </trkpt>
      <trkpt lat="48.10768" lon="7.06583">
        <ele>1248.24</ele>
        <time>2020-09-06T13:03:16Z</time>
      </trkpt>
      <trkpt lat="48.1078" lon="7.06565">
        <ele>1245.3</ele>
        <time>2020-09-06T13:03:38Z</time>
      </trkpt>
      <trkpt lat="48.10793" lon="7.06546">
        <ele>1242.44</ele>
        <time>2020-09-06T13:04:00Z</time>
      </trkpt>
      <trkpt lat="48.10805" lon="7.06529">
        <ele>1239.3</ele>
        <time>2020-09-06T13:04:28Z</time>
      </trkpt>
      <trkpt lat="48.10819" lon="7.06515">
        <ele>1236.36</ele>
        <time>2020-09-06T13:04:51Z</time>
      </trkpt>
      <trkpt lat="48.10834" lon="7.06501">
        <ele>1233.58</ele>
        <time>2020-09-06T13:05:14Z</time>
      </trkpt>
      <trkpt lat="48.10847" lon="7.06482">
        <ele>1230.63</ele>
        <time>2020-09-06T13:05:38Z</time>
      </trkpt>
      <trkpt lat="48.10862" lon="7.06468">
        <ele>1227.22</ele>
        <time>2020-09-06T13:06:01Z</time>
      </trkpt>
      <trkpt lat="48.10879" lon="7.06462">
        <ele>1224.63</ele>
        <time>2020-09-06T13:06:24Z</time>
      </trkpt>
      <trkpt lat="48.10893" lon="7.06446">
        <ele>1221.99</ele>
        <time>2020-09-06T13:06:56Z</time>
      </trkpt>
      <trkpt lat="48.10904" lon="7.06438">
        <ele>1221.28</ele>
        <time>2020-09-06T13:07:35Z</time>
      </trkpt>
      <trkpt lat="48.10923" lon="7.0645">
        <ele>1219.94</ele>
        <time>2020-09-06T13:07:55Z</time>
      </trkpt>
      <trkpt lat="48.1094" lon="7.06458">
        <ele>1218.7</ele>
        <time>2020-09-06T13:08:46Z</time>
      </trkpt>
      <trkpt lat="48.10955" lon="7.06463">
        <ele>1217.09</ele>
        <time>2020-09-06T13:09:09Z</time>
      </trkpt>
      <trkpt lat="48.10974" lon="7.06476">
        <ele>1216.68</ele>
        <time>2020-09-06T13:09:27Z</time>
      </trkpt>
      <trkpt lat="48.10992" lon="7.0649">
        <ele>1216.24</ele>
        <time>2020-09-06T13:09:45Z</time>
      </trkpt>
      <trkpt lat="48.11012" lon="7.06496">
        <ele>1216.16</ele>
        <time>2020-09-06T13:10:09Z</time>
      </trkpt>
      <trkpt lat="48.1103" lon="7.06486">
        <ele>1213.78</ele>
        <time>2020-09-06T13:10:32Z</time>
      </trkpt>
      <trkpt lat="48.11052" lon="7.0648">
        <ele>1212.4</ele>
        <time>2020-09-06T13:10:59Z</time>
      </trkpt>
      <trkpt lat="48.11075" lon="7.0648">
        <ele>1210.62</ele>
        <time>2020-09-06T13:11:32Z</time>
      </trkpt>
      <trkpt lat="48.11098" lon="7.06476">
        <ele>1210.36</ele>
        <time>2020-09-06T13:12:07Z</time>
      </trkpt>
      <trkpt lat="48.1112" lon="7.06486">
        <ele>1212.48</ele>
        <time>2020-09-06T13:12:57Z</time>
      </trkpt>
      <trkpt lat="48.11114" lon="7.06471">
        <ele>1209.03</ele>
        <time>2020-09-06T13:13:53Z</time>
      </trkpt>
      <trkpt lat="48.11134" lon="7.06461">
        <ele>1209.33</ele>
        <time>2020-09-06T13:14:28Z</time>
      </trkpt>
      <trkpt lat="48.11149" lon="7.06459">
        <ele>1208.03</ele>
        <time>2020-09-06T13:15:19Z</time>
      </trkpt>
      <trkpt lat="48.11168" lon="7.06447">
        <ele>1207.34</ele>
        <time>2020-09-06T13:16:04Z</time>
      </trkpt>
      <trkpt lat="48.1118" lon="7.06445">
        <ele>1207.9</ele>
        <time>2020-09-06T13:17:39Z</time>
      </trkpt>
      <trkpt lat="48.11184" lon="7.06433">
        <ele>1208.66</ele>
        <time>2020-09-06T13:20:37Z</time>
      </trkpt>
      <trkpt lat="48.11193" lon="7.06412">
        <ele>1208.35</ele>
        <time>2020-09-06T13:21:15Z</time>
      </trkpt>
      <trkpt lat="48.11204" lon="7.06387">
        <ele>1206.44</ele>
        <time>2020-09-06T13:21:37Z</time>
      </trkpt>
      <trkpt lat="48.11217" lon="7.06365">
        <ele>1205.71</ele>
        <time>2020-09-06T13:22:01Z</time>
      </trkpt>
      <trkpt lat="48.1121" lon="7.06336">
        <ele>1203.65</ele>
        <time>2020-09-06T13:22:32Z</time>
      </trkpt>
      <trkpt lat="48.11214" lon="7.06302">
        <ele>1201.55</ele>
        <time>2020-09-06T13:23:02Z</time>
      </trkpt>
      <trkpt lat="48.11217" lon="7.06269">
        <ele>1199.62</ele>
        <time>2020-09-06T13:23:26Z</time>
      </trkpt>
      <trkpt lat="48.11225" lon="7.0624">
        <ele>1198.08</ele>
        <time>2020-09-06T13:23:51Z</time>
      </trkpt>
      <trkpt lat="48.11238" lon="7.06209">
        <ele>1196.72</ele>
        <time>2020-09-06T13:24:17Z</time>
      </trkpt>
      <trkpt lat="48.11251" lon="7.06183">
        <ele>1196.62</ele>
        <time>2020-09-06T13:24:35Z</time>
      </trkpt>
      <trkpt lat="48.11261" lon="7.06157">
        <ele>1196.6</ele>
        <time>2020-09-06T13:24:53Z</time>
      </trkpt>
      <trkpt lat="48.11268" lon="7.06131">
        <ele>1196</ele>
        <time>2020-09-06T13:25:10Z</time>
      </trkpt>
      <trkpt lat="48.11275" lon="7.06105">
        <ele>1196.33</ele>
        <time>2020-09-06T13:25:26Z</time>
      </trkpt>
      <trkpt lat="48.11275" lon="7.06079">
        <ele>1196.08</ele>
        <time>2020-09-06T13:25:42Z</time>
      </trkpt>
      <trkpt lat="48.11276" lon="7.06051">
        <ele>1196.25</ele>
        <time>2020-09-06T13:26:00Z</time>
      </trkpt>
      <trkpt lat="48.11273" lon="7.06024">
        <ele>1195.44</ele>
        <time>2020-09-06T13:26:38Z</time>
      </trkpt>
      <trkpt lat="48.1127" lon="7.05996">
        <ele>1195.13</ele>
        <time>2020-09-06T13:27:02Z</time>
      </trkpt>
      <trkpt lat="48.11268" lon="7.0596">
        <ele>1194.71</ele>
        <time>2020-09-06T13:27:31Z</time>
      </trkpt>
      <trkpt lat="48.11267" lon="7.05925">
        <ele>1194.77</ele>
        <time>2020-09-06T13:28:01Z</time>
      </trkpt>
      <trkpt lat="48.11267" lon="7.05893">
        <ele>1192.3</ele>
        <time>2020-09-06T13:28:31Z</time>
      </trkpt>
      <trkpt lat="48.11272" lon="7.05874">
        <ele>1192.3</ele>
        <time>2020-09-06T13:29:13Z</time>
      </trkpt>
      <trkpt lat="48.11278" lon="7.05859">
        <ele>1190.19</ele>
        <time>2020-09-06T13:30:06Z</time>
      </trkpt>
      <trkpt lat="48.11278" lon="7.05835">
        <ele>1187.94</ele>
        <time>2020-09-06T13:30:52Z</time>
      </trkpt>
      <trkpt lat="48.11274" lon="7.05814">
        <ele>1185.61</ele>
        <time>2020-09-06T13:31:34Z</time>
      </trkpt>
      <trkpt lat="48.11261" lon="7.05822">
        <ele>1185.65</ele>
        <time>2020-09-06T13:32:12Z</time>
      </trkpt>
      <trkpt lat="48.11244" lon="7.05834">
        <ele>1186.22</ele>
        <time>2020-09-06T13:32:45Z</time>
      </trkpt>
      <trkpt lat="48.11236" lon="7.05813">
        <ele>1184.24</ele>
        <time>2020-09-06T13:33:30Z</time>
      </trkpt>
      <trkpt lat="48.11225" lon="7.05804">
        <ele>1182.96</ele>
        <time>2020-09-06T13:34:12Z</time>
      </trkpt>
      <trkpt lat="48.1123" lon="7.05787">
        <ele>1181.93</ele>
        <time>2020-09-06T13:34:57Z</time>
      </trkpt>
      <trkpt lat="48.11214" lon="7.05802">
        <ele>1181.62</ele>
        <time>2020-09-06T13:35:32Z</time>
      </trkpt>
      <trkpt lat="48.11216" lon="7.05776">
        <ele>1179.68</ele>
        <time>2020-09-06T13:36:12Z</time>
      </trkpt>
      <trkpt lat="48.11212" lon="7.05757">
        <ele>1176.68</ele>
        <time>2020-09-06T13:36:53Z</time>
      </trkpt>
      <trkpt lat="48.1121" lon="7.05737">
        <ele>1174.27</ele>
        <time>2020-09-06T13:37:37Z</time>
      </trkpt>
      <trkpt lat="48.11216" lon="7.05704">
        <ele>1170.24</ele>
        <time>2020-09-06T13:38:20Z</time>
      </trkpt>
      <trkpt lat="48.11231" lon="7.05683">
        <ele>1167</ele>
        <time>2020-09-06T13:38:51Z</time>
      </trkpt>
      <trkpt lat="48.11249" lon="7.05666">
        <ele>1163.66</ele>
        <time>2020-09-06T13:39:24Z</time>
      </trkpt>
      <trkpt lat="48.11251" lon="7.05642">
        <ele>1158.51</ele>
        <time>2020-09-06T13:39:59Z</time>
      </trkpt>
      <trkpt lat="48.11244" lon="7.05619">
        <ele>1152.52</ele>
        <time>2020-09-06T13:40:40Z</time>
      </trkpt>
      <trkpt lat="48.11228" lon="7.05609">
        <ele>1149.92</ele>
        <time>2020-09-06T13:41:32Z</time>
      </trkpt>
      <trkpt lat="48.1124" lon="7.05592">
        <ele>1147.56</ele>
        <time>2020-09-06T13:42:33Z</time>
      </trkpt>
      <trkpt lat="48.11255" lon="7.05573">
        <ele>1144.58</ele>
        <time>2020-09-06T13:43:25Z</time>
      </trkpt>
      <trkpt lat="48.11271" lon="7.05555">
        <ele>1141.78</ele>
        <time>2020-09-06T13:44:12Z</time>
      </trkpt>
      <trkpt lat="48.1127" lon="7.05538">
        <ele>1139.76</ele>
        <time>2020-09-06T13:45:06Z</time>
      </trkpt>
      <trkpt lat="48.11251" lon="7.05536">
        <ele>1136.64</ele>
        <time>2020-09-06T13:45:52Z</time>
      </trkpt>
      <trkpt lat="48.11237" lon="7.05533">
        <ele>1135.88</ele>
        <time>2020-09-06T13:46:46Z</time>
      </trkpt>
      <trkpt lat="48.11235" lon="7.05535">
        <ele>1136.63</ele>
        <time>2020-09-06T13:47:27Z</time>
      </trkpt>
      <trkpt lat="48.11216" lon="7.05526">
        <ele>1132.86</ele>
        <time>2020-09-06T13:47:59Z</time>
      </trkpt>
      <trkpt lat="48.11194" lon="7.05513">
        <ele>1128.71</ele>
        <time>2020-09-06T13:48:32Z</time>
      </trkpt>
      <trkpt lat="48.11178" lon="7.05501">
        <ele>1127</ele>
        <time>2020-09-06T13:49:15Z</time>
      </trkpt>
      <trkpt lat="48.11181" lon="7.05521">
        <ele>1130.84</ele>
        <time>2020-09-06T13:49:55Z</time>
      </trkpt>
      <trkpt lat="48.11187" lon="7.05526">
        <ele>1131.08</ele>
        <time>2020-09-06T13:50:39Z</time>
      </trkpt>
      <trkpt lat="48.11168" lon="7.05529">
        <ele>1131.65</ele>
        <time>2020-09-06T13:51:30Z</time>
      </trkpt>
      <trkpt lat="48.11161" lon="7.05507">
        <ele>1126.86</ele>
        <time>2020-09-06T13:52:22Z</time>
      </trkpt>
      <trkpt lat="48.11158" lon="7.05501">
        <ele>1126.06</ele>
        <time>2020-09-06T13:53:17Z</time>
      </trkpt>
      <trkpt lat="48.11146" lon="7.05502">
        <ele>1125.04</ele>
        <time>2020-09-06T13:54:23Z</time>
      </trkpt>
      <trkpt lat="48.1114" lon="7.05507">
        <ele>1125.95</ele>
        <time>2020-09-06T13:55:01Z</time>
      </trkpt>
      <trkpt lat="48.11137" lon="7.05485">
        <ele>1122.13</ele>
        <time>2020-09-06T13:55:49Z</time>
      </trkpt>
      <trkpt lat="48.11145" lon="7.05478">
        <ele>1119.92</ele>
        <time>2020-09-06T13:56:44Z</time>
      </trkpt>
      <trkpt lat="48.11142" lon="7.05476">
        <ele>1119.35</ele>
        <time>2020-09-06T13:57:35Z</time>
      </trkpt>
      <trkpt lat="48.11148" lon="7.05469">
        <ele>1118.92</ele>
        <time>2020-09-06T13:58:24Z</time>
      </trkpt>
      <trkpt lat="48.11155" lon="7.05457">
        <ele>1117.16</ele>
        <time>2020-09-06T13:59:15Z</time>
      </trkpt>
      <trkpt lat="48.11175" lon="7.05451">
        <ele>1114.78</ele>
        <time>2020-09-06T14:00:02Z</time>
      </trkpt>
      <trkpt lat="48.11193" lon="7.05447">
        <ele>1114.98</ele>
        <time>2020-09-06T14:00:45Z</time>
      </trkpt>
      <trkpt lat="48.11212" lon="7.05442">
        <ele>1111.33</ele>
        <time>2020-09-06T14:01:27Z</time>
      </trkpt>
      <trkpt lat="48.11227" lon="7.05437">
        <ele>1110.03</ele>
        <time>2020-09-06T14:02:13Z</time>
      </trkpt>
      <trkpt lat="48.11241" lon="7.05423">
        <ele>1106</ele>
        <time>2020-09-06T14:02:56Z</time>
      </trkpt>
      <trkpt lat="48.11235" lon="7.05423">
        <ele>1104.89</ele>
        <time>2020-09-06T14:03:45Z</time>
      </trkpt>
      <trkpt lat="48.11225" lon="7.05403">
        <ele>1101.45</ele>
        <time>2020-09-06T14:04:28Z</time>
      </trkpt>
      <trkpt lat="48.11206" lon="7.0539">
        <ele>1099.15</ele>
        <time>2020-09-06T14:05:15Z</time>
      </trkpt>
      <trkpt lat="48.11187" lon="7.05374">
        <ele>1096.27</ele>
        <time>2020-09-06T14:05:54Z</time>
      </trkpt>
      <trkpt lat="48.11167" lon="7.05359">
        <ele>1091.07</ele>
        <time>2020-09-06T14:06:31Z</time>
      </trkpt>
      <trkpt lat="48.1115" lon="7.05342">
        <ele>1088.62</ele>
        <time>2020-09-06T14:07:10Z</time>
      </trkpt>
      <trkpt lat="48.11136" lon="7.05325">
        <ele>1081.71</ele>
        <time>2020-09-06T14:07:49Z</time>
      </trkpt>
      <trkpt lat="48.11116" lon="7.05315">
        <ele>1078.47</ele>
        <time>2020-09-06T14:08:28Z</time>
      </trkpt>
      <trkpt lat="48.11099" lon="7.05303">
        <ele>1075.25</ele>
        <time>2020-09-06T14:09:14Z</time>
      </trkpt>
      <trkpt lat="48.11082" lon="7.05294">
        <ele>1073.25</ele>
        <time>2020-09-06T14:10:01Z</time>
      </trkpt>
      <trkpt lat="48.11082" lon="7.05279">
        <ele>1068.4</ele>
        <time>2020-09-06T14:10:49Z</time>
      </trkpt>
      <trkpt lat="48.11102" lon="7.05263">
        <ele>1064.92</ele>
        <time>2020-09-06T14:11:30Z</time>
      </trkpt>
      <trkpt lat="48.11123" lon="7.05246">
        <ele>1060.2</ele>
        <time>2020-09-06T14:12:10Z</time>
      </trkpt>
      <trkpt lat="48.11144" lon="7.05237">
        <ele>1058.17</ele>
        <time>2020-09-06T14:12:51Z</time>
      </trkpt>
      <trkpt lat="48.11158" lon="7.05226">
        <ele>1055.52</ele>
        <time>2020-09-06T14:13:38Z</time>
      </trkpt>
      <trkpt lat="48.11155" lon="7.05224">
        <ele>1055.74</ele>
        <time>2020-09-06T14:14:30Z</time>
      </trkpt>
      <trkpt lat="48.11166" lon="7.05219">
        <ele>1055.08</ele>
        <time>2020-09-06T14:15:07Z</time>
      </trkpt>
      <trkpt lat="48.11188" lon="7.0521">
        <ele>1049.94</ele>
        <time>2020-09-06T14:15:45Z</time>
      </trkpt>
      <trkpt lat="48.1119" lon="7.05205">
        <ele>1050.67</ele>
        <time>2020-09-06T14:16:24Z</time>
      </trkpt>
      <trkpt lat="48.11207" lon="7.05205">
        <ele>1047.89</ele>
        <time>2020-09-06T14:17:11Z</time>
      </trkpt>
      <trkpt lat="48.11209" lon="7.05187">
        <ele>1043.32</ele>
        <time>2020-09-06T14:17:48Z</time>
      </trkpt>
      <trkpt lat="48.11192" lon="7.05163">
        <ele>1039.74</ele>
        <time>2020-09-06T14:18:24Z</time>
      </trkpt>
      <trkpt lat="48.11182" lon="7.05157">
        <ele>1036.79</ele>
        <time>2020-09-06T14:19:05Z</time>
      </trkpt>
      <trkpt lat="48.11165" lon="7.05148">
        <ele>1035.75</ele>
        <time>2020-09-06T14:19:49Z</time>
      </trkpt>
      <trkpt lat="48.11147" lon="7.05126">
        <ele>1031.77</ele>
        <time>2020-09-06T14:20:23Z</time>
      </trkpt>
      <trkpt lat="48.1113" lon="7.05108">
        <ele>1028.56</ele>
        <time>2020-09-06T14:20:57Z</time>
      </trkpt>
      <trkpt lat="48.11146" lon="7.05102">
        <ele>1024.44</ele>
        <time>2020-09-06T14:21:39Z</time>
      </trkpt>
      <trkpt lat="48.11168" lon="7.05093">
        <ele>1020.56</ele>
        <time>2020-09-06T14:22:18Z</time>
      </trkpt>
      <trkpt lat="48.11184" lon="7.05097">
        <ele>1018.75</ele>
        <time>2020-09-06T14:23:05Z</time>
      </trkpt>
      <trkpt lat="48.11189" lon="7.05081">
        <ele>1015.4</ele>
        <time>2020-09-06T14:23:52Z</time>
      </trkpt>
      <trkpt lat="48.11176" lon="7.05058">
        <ele>1011.87</ele>
        <time>2020-09-06T14:24:25Z</time>
      </trkpt>
      <trkpt lat="48.11157" lon="7.05038">
        <ele>1007.9</ele>
        <time>2020-09-06T14:24:59Z</time>
      </trkpt>
      <trkpt lat="48.11142" lon="7.05018">
        <ele>1003.71</ele>
        <time>2020-09-06T14:25:38Z</time>
      </trkpt>
      <trkpt lat="48.11153" lon="7.05008">
        <ele>999.28</ele>
        <time>2020-09-06T14:26:11Z</time>
      </trkpt>
      <trkpt lat="48.11132" lon="7.05012">
        <ele>1002.31</ele>
        <time>2020-09-06T14:26:39Z</time>
      </trkpt>
      <trkpt lat="48.11142" lon="7.05003">
        <ele>999.42</ele>
        <time>2020-09-06T14:27:26Z</time>
      </trkpt>
      <trkpt lat="48.11144" lon="7.05008">
        <ele>999.01</ele>
        <time>2020-09-06T14:28:43Z</time>
      </trkpt>
      <trkpt lat="48.1114" lon="7.05012">
        <ele>1001.14</ele>
        <time>2020-09-06T14:30:10Z</time>
      </trkpt>
      <trkpt lat="48.11143" lon="7.05">
        <ele>999.74</ele>
        <time>2020-09-06T14:31:13Z</time>
      </trkpt>
      <trkpt lat="48.1114" lon="7.05001">
        <ele>998.22</ele>
        <time>2020-09-06T14:32:05Z</time>
      </trkpt>
      <trkpt lat="48.11139" lon="7.04996">
        <ele>997.95</ele>
        <time>2020-09-06T14:33:22Z</time>
      </trkpt>
      <trkpt lat="48.11137" lon="7.05003">
        <ele>997.67</ele>
        <time>2020-09-06T14:34:49Z</time>
      </trkpt>
      <trkpt lat="48.11139" lon="7.05013">
        <ele>998.72</ele>
        <time>2020-09-06T14:36:01Z</time>
      </trkpt>
      <trkpt lat="48.11141" lon="7.05006">
        <ele>997.63</ele>
        <time>2020-09-06T14:36:55Z</time>
      </trkpt>
      <trkpt lat="48.11138" lon="7.05008">
        <ele>996.68</ele>
        <time>2020-09-06T14:38:08Z</time>
      </trkpt>
      <trkpt lat="48.11135" lon="7.05003">
        <ele>996.72</ele>
        <time>2020-09-06T14:38:59Z</time>
      </trkpt>
      <trkpt lat="48.11137" lon="7.05011">
        <ele>996.45</ele>
        <time>2020-09-06T14:39:54Z</time>
      </trkpt>
      <trkpt lat="48.11143" lon="7.05012">
        <ele>996.15</ele>
        <time>2020-09-06T14:41:00Z</time>
      </trkpt>
      <trkpt lat="48.1115" lon="7.05006">
        <ele>994.74</ele>
        <time>2020-09-06T14:41:59Z</time>
      </trkpt>
      <trkpt lat="48.11175" lon="7.05004">
        <ele>993.35</ele>
        <time>2020-09-06T14:42:37Z</time>
      </trkpt>
      <trkpt lat="48.11189" lon="7.05007">
        <ele>991.79</ele>
        <time>2020-09-06T14:43:20Z</time>
      </trkpt>
      <trkpt lat="48.11197" lon="7.05001">
        <ele>988.37</ele>
        <time>2020-09-06T14:43:55Z</time>
      </trkpt>
      <trkpt lat="48.11181" lon="7.04979">
        <ele>985.35</ele>
        <time>2020-09-06T14:44:26Z</time>
      </trkpt>
      <trkpt lat="48.11166" lon="7.04958">
        <ele>981.79</ele>
        <time>2020-09-06T14:44:58Z</time>
      </trkpt>
      <trkpt lat="48.11159" lon="7.04942">
        <ele>977.82</ele>
        <time>2020-09-06T14:45:38Z</time>
      </trkpt>
      <trkpt lat="48.11182" lon="7.04941">
        <ele>972.9</ele>
        <time>2020-09-06T14:46:15Z</time>
      </trkpt>
      <trkpt lat="48.11204" lon="7.04943">
        <ele>968.04</ele>
        <time>2020-09-06T14:46:56Z</time>
      </trkpt>
      <trkpt lat="48.11232" lon="7.04937">
        <ele>963.56</ele>
        <time>2020-09-06T14:47:34Z</time>
      </trkpt>
      <trkpt lat="48.11216" lon="7.04919">
        <ele>959.94</ele>
        <time>2020-09-06T14:48:08Z</time>
      </trkpt>
      <trkpt lat="48.112" lon="7.04897">
        <ele>956.49</ele>
        <time>2020-09-06T14:48:38Z</time>
      </trkpt>
      <trkpt lat="48.11188" lon="7.04876">
        <ele>952.37</ele>
        <time>2020-09-06T14:49:14Z</time>
      </trkpt>
      <trkpt lat="48.11179" lon="7.04858">
        <ele>947.8</ele>
        <time>2020-09-06T14:49:58Z</time>
      </trkpt>
      <trkpt lat="48.11201" lon="7.04846">
        <ele>942.51</ele>
        <time>2020-09-06T14:50:35Z</time>
      </trkpt>
      <trkpt lat="48.11187" lon="7.04832">
        <ele>938.36</ele>
        <time>2020-09-06T14:51:05Z</time>
      </trkpt>
      <trkpt lat="48.112" lon="7.04815">
        <ele>933.26</ele>
        <time>2020-09-06T14:51:47Z</time>
      </trkpt>
      <trkpt lat="48.11222" lon="7.04814">
        <ele>929.24</ele>
        <time>2020-09-06T14:52:24Z</time>
      </trkpt>
      <trkpt lat="48.11235" lon="7.04802">
        <ele>924.93</ele>
        <time>2020-09-06T14:53:00Z</time>
      </trkpt>
      <trkpt lat="48.11219" lon="7.04787">
        <ele>920.91</ele>
        <time>2020-09-06T14:53:27Z</time>
      </trkpt>
      <trkpt lat="48.11199" lon="7.04771">
        <ele>916.17</ele>
        <time>2020-09-06T14:54:01Z</time>
      </trkpt>
      <trkpt lat="48.11218" lon="7.04758">
        <ele>911.06</ele>
        <time>2020-09-06T14:54:39Z</time>
      </trkpt>
      <trkpt lat="48.11246" lon="7.04754">
        <ele>906.92</ele>
        <time>2020-09-06T14:55:15Z</time>
      </trkpt>
      <trkpt lat="48.11246" lon="7.04747">
        <ele>902.77</ele>
        <time>2020-09-06T14:55:49Z</time>
      </trkpt>
      <trkpt lat="48.11228" lon="7.04729">
        <ele>899.12</ele>
        <time>2020-09-06T14:56:22Z</time>
      </trkpt>
      <trkpt lat="48.11211" lon="7.04713">
        <ele>895.55</ele>
        <time>2020-09-06T14:56:57Z</time>
      </trkpt>
      <trkpt lat="48.11217" lon="7.04712">
        <ele>893.08</ele>
        <time>2020-09-06T14:57:52Z</time>
      </trkpt>
      <trkpt lat="48.11229" lon="7.04704">
        <ele>888.57</ele>
        <time>2020-09-06T14:58:36Z</time>
      </trkpt>
      <trkpt lat="48.11243" lon="7.04691">
        <ele>886.39</ele>
        <time>2020-09-06T14:59:50Z</time>
      </trkpt>
      <trkpt lat="48.11274" lon="7.04696">
        <ele>882.69</ele>
        <time>2020-09-06T15:00:21Z</time>
      </trkpt>
      <trkpt lat="48.1126" lon="7.0468">
        <ele>877.93</ele>
        <time>2020-09-06T15:00:51Z</time>
      </trkpt>
      <trkpt lat="48.11241" lon="7.04675">
        <ele>874.84</ele>
        <time>2020-09-06T15:01:14Z</time>
      </trkpt>
      <trkpt lat="48.11227" lon="7.04654">
        <ele>869.15</ele>
        <time>2020-09-06T15:01:50Z</time>
      </trkpt>
      <trkpt lat="48.11253" lon="7.04652">
        <ele>865.43</ele>
        <time>2020-09-06T15:02:26Z</time>
      </trkpt>
      <trkpt lat="48.11277" lon="7.04646">
        <ele>860.83</ele>
        <time>2020-09-06T15:02:59Z</time>
      </trkpt>
      <trkpt lat="48.1127" lon="7.04634">
        <ele>855.58</ele>
        <time>2020-09-06T15:03:40Z</time>
      </trkpt>
      <trkpt lat="48.11257" lon="7.04627">
        <ele>853.04</ele>
        <time>2020-09-06T15:04:20Z</time>
      </trkpt>
      <trkpt lat="48.1124" lon="7.04621">
        <ele>852.84</ele>
        <time>2020-09-06T15:04:45Z</time>
      </trkpt>
      <trkpt lat="48.1125" lon="7.04607">
        <ele>847.62</ele>
        <time>2020-09-06T15:05:24Z</time>
      </trkpt>
      <trkpt lat="48.1127" lon="7.046">
        <ele>843.77</ele>
        <time>2020-09-06T15:05:58Z</time>
      </trkpt>
      <trkpt lat="48.11254" lon="7.04594">
        <ele>838.39</ele>
        <time>2020-09-06T15:06:47Z</time>
      </trkpt>
      <trkpt lat="48.11247" lon="7.0458">
        <ele>833.41</ele>
        <time>2020-09-06T15:07:38Z</time>
      </trkpt>
      <trkpt lat="48.11266" lon="7.04566">
        <ele>827.58</ele>
        <time>2020-09-06T15:08:16Z</time>
      </trkpt>
      <trkpt lat="48.11283" lon="7.04549">
        <ele>821.84</ele>
        <time>2020-09-06T15:08:59Z</time>
      </trkpt>
      <trkpt lat="48.11305" lon="7.04537">
        <ele>815.18</ele>
        <time>2020-09-06T15:09:36Z</time>
      </trkpt>
      <trkpt lat="48.11304" lon="7.04534">
        <ele>812.3</ele>
        <time>2020-09-06T15:10:21Z</time>
      </trkpt>
      <trkpt lat="48.11298" lon="7.04534">
        <ele>811.97</ele>
        <time>2020-09-06T15:11:25Z</time>
      </trkpt>
      <trkpt lat="48.11286" lon="7.04529">
        <ele>811.01</ele>
        <time>2020-09-06T15:12:46Z</time>
      </trkpt>
      <trkpt lat="48.11265" lon="7.04524">
        <ele>812.38</ele>
        <time>2020-09-06T15:13:13Z</time>
      </trkpt>
      <trkpt lat="48.11243" lon="7.04514">
        <ele>812.44</ele>
        <time>2020-09-06T15:13:37Z</time>
      </trkpt>
      <trkpt lat="48.1122" lon="7.04518">
        <ele>813.04</ele>
        <time>2020-09-06T15:14:03Z</time>
      </trkpt>
      <trkpt lat="48.11193" lon="7.04533">
        <ele>813.64</ele>
        <time>2020-09-06T15:14:32Z</time>
      </trkpt>
      <trkpt lat="48.11167" lon="7.04534">
        <ele>813.53</ele>
        <time>2020-09-06T15:14:55Z</time>
      </trkpt>
      <trkpt lat="48.11146" lon="7.0454">
        <ele>813.57</ele>
        <time>2020-09-06T15:15:17Z</time>
      </trkpt>
      <trkpt lat="48.11126" lon="7.0455">
        <ele>811.39</ele>
        <time>2020-09-06T15:15:48Z</time>
      </trkpt>
      <trkpt lat="48.11099" lon="7.04555">
        <ele>806.89</ele>
        <time>2020-09-06T15:16:20Z</time>
      </trkpt>
      <trkpt lat="48.11087" lon="7.04533">
        <ele>802.48</ele>
        <time>2020-09-06T15:16:56Z</time>
      </trkpt>
      <trkpt lat="48.11092" lon="7.04545">
        <ele>802.91</ele>
        <time>2020-09-06T15:17:43Z</time>
      </trkpt>
      <trkpt lat="48.11082" lon="7.04551">
        <ele>803.51</ele>
        <time>2020-09-06T15:18:43Z</time>
      </trkpt>
      <trkpt lat="48.11094" lon="7.04556">
        <ele>805.17</ele>
        <time>2020-09-06T15:20:58Z</time>
      </trkpt>
      <trkpt lat="48.11113" lon="7.04555">
        <ele>808.59</ele>
        <time>2020-09-06T15:21:22Z</time>
      </trkpt>
      <trkpt lat="48.11113" lon="7.0456">
        <ele>812.3</ele>
        <time>2020-09-06T15:22:02Z</time>
      </trkpt>
      <trkpt lat="48.11096" lon="7.04568">
        <ele>812.63</ele>
        <time>2020-09-06T15:22:32Z</time>
      </trkpt>
      <trkpt lat="48.1108" lon="7.04586">
        <ele>815.17</ele>
        <time>2020-09-06T15:23:02Z</time>
      </trkpt>
      <trkpt lat="48.1107" lon="7.04601">
        <ele>816.17</ele>
        <time>2020-09-06T15:23:34Z</time>
      </trkpt>
      <trkpt lat="48.11073" lon="7.04608">
        <ele>815.5</ele>
        <time>2020-09-06T15:24:25Z</time>
      </trkpt>
      <trkpt lat="48.11074" lon="7.04599">
        <ele>815.5</ele>
        <time>2020-09-06T15:25:10Z</time>
      </trkpt>
      <trkpt lat="48.11067" lon="7.04609">
        <ele>814.77</ele>
        <time>2020-09-06T15:25:59Z</time>
      </trkpt>
      <trkpt lat="48.11079" lon="7.04585">
        <ele>812.99</ele>
        <time>2020-09-06T15:26:34Z</time>
      </trkpt>
      <trkpt lat="48.11097" lon="7.04572">
        <ele>809.82</ele>
        <time>2020-09-06T15:27:14Z</time>
      </trkpt>
      <trkpt lat="48.11115" lon="7.04561">
        <ele>808.42</ele>
        <time>2020-09-06T15:27:46Z</time>
      </trkpt>
      <trkpt lat="48.11127" lon="7.04554">
        <ele>807.28</ele>
        <time>2020-09-06T15:28:25Z</time>
      </trkpt>
      <trkpt lat="48.11122" lon="7.04552">
        <ele>807.79</ele>
        <time>2020-09-06T15:29:14Z</time>
      </trkpt>
      <trkpt lat="48.1112" lon="7.04559">
        <ele>809.21</ele>
        <time>2020-09-06T15:29:45Z</time>
      </trkpt>
      <trkpt lat="48.11146" lon="7.04549">
        <ele>810.09</ele>
        <time>2020-09-06T15:30:16Z</time>
      </trkpt>
      <trkpt lat="48.1113" lon="7.04543">
        <ele>806.87</ele>
        <time>2020-09-06T15:30:56Z</time>
      </trkpt>
      <trkpt lat="48.11103" lon="7.04547">
        <ele>801.34</ele>
        <time>2020-09-06T15:31:15Z</time>
      </trkpt>
      <trkpt lat="48.11103" lon="7.04557">
        <ele>802.43</ele>
        <time>2020-09-06T15:31:53Z</time>
      </trkpt>
      <trkpt lat="48.11123" lon="7.04535">
        <ele>797.53</ele>
        <time>2020-09-06T15:32:18Z</time>
      </trkpt>
      <trkpt lat="48.1114" lon="7.04512">
        <ele>791.03</ele>
        <time>2020-09-06T15:32:46Z</time>
      </trkpt>
      <trkpt lat="48.11152" lon="7.04491">
        <ele>784.72</ele>
        <time>2020-09-06T15:33:24Z</time>
      </trkpt>
      <trkpt lat="48.11145" lon="7.04498">
        <ele>785.37</ele>
        <time>2020-09-06T15:34:21Z</time>
      </trkpt>
      <trkpt lat="48.11156" lon="7.04478">
        <ele>782.19</ele>
        <time>2020-09-06T15:34:48Z</time>
      </trkpt>
      <trkpt lat="48.11178" lon="7.0446">
        <ele>778.81</ele>
        <time>2020-09-06T15:35:20Z</time>
      </trkpt>
      <trkpt lat="48.11197" lon="7.04447">
        <ele>776.16</ele>
        <time>2020-09-06T15:35:52Z</time>
      </trkpt>
      <trkpt lat="48.11213" lon="7.0443">
        <ele>771.95</ele>
        <time>2020-09-06T15:36:20Z</time>
      </trkpt>
      <trkpt lat="48.11226" lon="7.04408">
        <ele>767.8</ele>
        <time>2020-09-06T15:36:44Z</time>
      </trkpt>
      <trkpt lat="48.11244" lon="7.04397">
        <ele>761.49</ele>
        <time>2020-09-06T15:37:19Z</time>
      </trkpt>
      <trkpt lat="48.11265" lon="7.04386">
        <ele>756.8</ele>
        <time>2020-09-06T15:37:50Z</time>
      </trkpt>
      <trkpt lat="48.11286" lon="7.04378">
        <ele>751.86</ele>
        <time>2020-09-06T15:38:23Z</time>
      </trkpt>
      <trkpt lat="48.11311" lon="7.04374">
        <ele>748.52</ele>
        <time>2020-09-06T15:38:51Z</time>
      </trkpt>
      <trkpt lat="48.11338" lon="7.04374">
        <ele>742.61</ele>
        <time>2020-09-06T15:39:17Z</time>
      </trkpt>
      <trkpt lat="48.11363" lon="7.04372">
        <ele>739.07</ele>
        <time>2020-09-06T15:39:47Z</time>
      </trkpt>
      <trkpt lat="48.11384" lon="7.04367">
        <ele>734.78</ele>
        <time>2020-09-06T15:40:18Z</time>
      </trkpt>
      <trkpt lat="48.11404" lon="7.04358">
        <ele>731.09</ele>
        <time>2020-09-06T15:40:43Z</time>
      </trkpt>
      <trkpt lat="48.11424" lon="7.04361">
        <ele>726.43</ele>
        <time>2020-09-06T15:41:07Z</time>
      </trkpt>
      <trkpt lat="48.11418" lon="7.04369">
        <ele>726.22</ele>
        <time>2020-09-06T15:42:03Z</time>
      </trkpt>
      <trkpt lat="48.11432" lon="7.04375">
        <ele>725.11</ele>
        <time>2020-09-06T15:42:44Z</time>
      </trkpt>
      <trkpt lat="48.11454" lon="7.04374">
        <ele>723.81</ele>
        <time>2020-09-06T15:43:01Z</time>
      </trkpt>
      <trkpt lat="48.11464" lon="7.04372">
        <ele>721.96</ele>
        <time>2020-09-06T15:43:24Z</time>
      </trkpt>
      <trkpt lat="48.11482" lon="7.04373">
        <ele>719.2</ele>
        <time>2020-09-06T15:43:45Z</time>
      </trkpt>
      <trkpt lat="48.11501" lon="7.04365">
        <ele>718.32</ele>
        <time>2020-09-06T15:44:07Z</time>
      </trkpt>
      <trkpt lat="48.11518" lon="7.04361">
        <ele>718.14</ele>
        <time>2020-09-06T15:44:28Z</time>
      </trkpt>
      <trkpt lat="48.11537" lon="7.04368">
        <ele>716.56</ele>
        <time>2020-09-06T15:45:03Z</time>
      </trkpt>
      <trkpt lat="48.11533" lon="7.04347">
        <ele>715.04</ele>
        <time>2020-09-06T15:45:37Z</time>
      </trkpt>
      <trkpt lat="48.11519" lon="7.04331">
        <ele>713.87</ele>
        <time>2020-09-06T15:46:12Z</time>
      </trkpt>
      <trkpt lat="48.11503" lon="7.04317">
        <ele>715.14</ele>
        <time>2020-09-06T15:46:36Z</time>
      </trkpt>
      <trkpt lat="48.11499" lon="7.04317">
        <ele>714.61</ele>
        <time>2020-09-06T15:47:35Z</time>
      </trkpt>
      <trkpt lat="48.11504" lon="7.04316">
        <ele>710.26</ele>
        <time>2020-09-06T16:27:03Z</time>
      </trkpt>
      <trkpt lat="48.11521" lon="7.04319">
        <ele>709.28</ele>
        <time>2020-09-06T16:27:34Z</time>
      </trkpt>
      <trkpt lat="48.11538" lon="7.04316">
        <ele>708.3</ele>
        <time>2020-09-06T16:28:05Z</time>
      </trkpt>
      <trkpt lat="48.11556" lon="7.04298">
        <ele>705.33</ele>
        <time>2020-09-06T16:28:32Z</time>
      </trkpt>
      <trkpt lat="48.11573" lon="7.04285">
        <ele>704.4</ele>
        <time>2020-09-06T16:28:55Z</time>
      </trkpt>
      <trkpt lat="48.11592" lon="7.04276">
        <ele>703.44</ele>
        <time>2020-09-06T16:29:21Z</time>
      </trkpt>
      <trkpt lat="48.11612" lon="7.0427">
        <ele>703.13</ele>
        <time>2020-09-06T16:29:45Z</time>
      </trkpt>
      <trkpt lat="48.11633" lon="7.04263">
        <ele>702.01</ele>
        <time>2020-09-06T16:30:09Z</time>
      </trkpt>
      <trkpt lat="48.11653" lon="7.04257">
        <ele>701.49</ele>
        <time>2020-09-06T16:30:31Z</time>
      </trkpt>
      <trkpt lat="48.11672" lon="7.04244">
        <ele>700.43</ele>
        <time>2020-09-06T16:30:51Z</time>
      </trkpt>
      <trkpt lat="48.11687" lon="7.04227">
        <ele>699.26</ele>
        <time>2020-09-06T16:31:10Z</time>
      </trkpt>
      <trkpt lat="48.11705" lon="7.04211">
        <ele>697.66</ele>
        <time>2020-09-06T16:31:34Z</time>
      </trkpt>
      <trkpt lat="48.11724" lon="7.04199">
        <ele>696.18</ele>
        <time>2020-09-06T16:31:56Z</time>
      </trkpt>
      <trkpt lat="48.11746" lon="7.04206">
        <ele>696.08</ele>
        <time>2020-09-06T16:32:20Z</time>
      </trkpt>
      <trkpt lat="48.11765" lon="7.04216">
        <ele>696.31</ele>
        <time>2020-09-06T16:32:42Z</time>
      </trkpt>
      <trkpt lat="48.11782" lon="7.04224">
        <ele>695.68</ele>
        <time>2020-09-06T16:33:00Z</time>
      </trkpt>
      <trkpt lat="48.118" lon="7.04234">
        <ele>695.64</ele>
        <time>2020-09-06T16:33:18Z</time>
      </trkpt>
      <trkpt lat="48.11818" lon="7.04241">
        <ele>695.04</ele>
        <time>2020-09-06T16:33:35Z</time>
      </trkpt>
      <trkpt lat="48.11837" lon="7.04249">
        <ele>695.42</ele>
        <time>2020-09-06T16:33:53Z</time>
      </trkpt>
      <trkpt lat="48.11856" lon="7.04257">
        <ele>696.11</ele>
        <time>2020-09-06T16:34:11Z</time>
      </trkpt>
      <trkpt lat="48.11875" lon="7.04257">
        <ele>696.07</ele>
        <time>2020-09-06T16:34:29Z</time>
      </trkpt>
      <trkpt lat="48.11894" lon="7.0425">
        <ele>696.31</ele>
        <time>2020-09-06T16:34:47Z</time>
      </trkpt>
    </trkseg>
  </trk>
</gpx>